BAW10 EGLL-KBOS
Flight info
| Callsign | BAW10 |
|---|---|
| Flight time | 6h 22m |
| Altitude | 38000 |
| Route | CPT L9 BUCGO DCT FELCA DCT OFSOX DCT BANBA DCT TOBOR/M087F390 DCT 53N020W 53N030W 5230N04000W 50N050W DCT ELSIR/N0490F400 DCT TUSKY DCT EURRO OOSHN5 |
| Aircraft | A388/J-SADE2E3FGHIJ3J4J5M1RWXY/LB1D1 |
Departure
| Time | 2026-05-06 17:42 |
|---|---|
| Airport | London Heathrow Airport (EGLL) |
Arrival
| Time | 2026-05-07 00:04 |
|---|---|
| Airport | Boston Logan International Airport (KBOS) |
| Time | Latitude | Longitude | Altitude | Speed | Heading |
|---|---|---|---|---|---|
| 2026-05-06 17:07 | 51.46847 | -0.46354 | 96 ft | 0 kts | 56° |
| 2026-05-06 17:30 | 51.46840 | -0.46370 | 95 ft | 2 kts | 58° |
| 2026-05-06 17:30 | 51.46833 | -0.46393 | 95 ft | 2 kts | 63° |
| 2026-05-06 17:31 | 51.46827 | -0.46418 | 93 ft | 2 kts | 72° |
| 2026-05-06 17:31 | 51.46825 | -0.46444 | 92 ft | 2 kts | 87° |
| 2026-05-06 17:31 | 51.46828 | -0.46470 | 93 ft | 2 kts | 110° |
| 2026-05-06 17:31 | 51.46838 | -0.46491 | 93 ft | 2 kts | 133° |
| 2026-05-06 17:32 | 51.46845 | -0.46500 | 92 ft | 0 kts | 141° |
| 2026-05-06 17:35 | 51.46842 | -0.46496 | 93 ft | 2 kts | 141° |
| 2026-05-06 17:35 | 51.46810 | -0.46460 | 95 ft | 8 kts | 146° |
| 2026-05-06 17:35 | 51.46747 | -0.46422 | 92 ft | 12 kts | 179° |
| 2026-05-06 17:36 | 51.46658 | -0.46626 | 95 ft | 19 kts | 269° |
| 2026-05-06 17:36 | 51.46658 | -0.46842 | 94 ft | 20 kts | 270° |
| 2026-05-06 17:36 | 51.46657 | -0.47071 | 94 ft | 21 kts | 269° |
| 2026-05-06 17:36 | 51.46656 | -0.47310 | 94 ft | 22 kts | 270° |
| 2026-05-06 17:37 | 51.46655 | -0.47558 | 94 ft | 22 kts | 269° |
| 2026-05-06 17:37 | 51.46653 | -0.47811 | 91 ft | 23 kts | 269° |
| 2026-05-06 17:37 | 51.46653 | -0.48029 | 91 ft | 12 kts | 270° |
| 2026-05-06 17:37 | 51.46653 | -0.48070 | 91 ft | 2 kts | 270° |
| 2026-05-06 17:38 | 51.46653 | -0.48137 | 91 ft | 12 kts | 270° |
| 2026-05-06 17:38 | 51.46653 | -0.48350 | 91 ft | 23 kts | 270° |
| 2026-05-06 17:38 | 51.46652 | -0.48591 | 91 ft | 19 kts | 269° |
| 2026-05-06 17:38 | 51.46649 | -0.48720 | 92 ft | 6 kts | 246° |
| 2026-05-06 17:39 | 51.46639 | -0.48745 | 96 ft | 3 kts | 221° |
| 2026-05-06 17:39 | 51.46623 | -0.48759 | 96 ft | 1 kts | 197° |
| 2026-05-06 17:39 | 51.46622 | -0.48760 | 96 ft | 0 kts | 197° |
| 2026-05-06 17:41 | 51.46610 | -0.48766 | 93 ft | 5 kts | 197° |
| 2026-05-06 17:41 | 51.46528 | -0.48775 | 94 ft | 15 kts | 158° |
| 2026-05-06 17:41 | 51.46479 | -0.48625 | 91 ft | 30 kts | 90° |
| 2026-05-06 17:41 | 51.46481 | -0.47841 | 92 ft | 108 kts | 89° |
| 2026-05-06 17:42 | 51.46489 | -0.46346 | 95 ft | 155 kts | 89° |
| 2026-05-06 17:42 | 51.46482 | -0.44478 | 214 ft | 173 kts | 88° |
| 2026-05-06 17:42 | 51.46492 | -0.42577 | 739 ft | 168 kts | 86° |
| 2026-05-06 17:42 | 51.46123 | -0.40807 | 1206 ft | 176 kts | 132° |
| 2026-05-06 17:43 | 51.45010 | -0.40100 | 1704 ft | 180 kts | 184° |
| 2026-05-06 17:43 | 51.43863 | -0.40946 | 1919 ft | 190 kts | 226° |
| 2026-05-06 17:43 | 51.42988 | -0.42646 | 2129 ft | 206 kts | 236° |
| 2026-05-06 17:43 | 51.42126 | -0.44618 | 2436 ft | 230 kts | 238° |
| 2026-05-06 17:44 | 51.41205 | -0.46865 | 2844 ft | 252 kts | 245° |
| 2026-05-06 17:44 | 51.40748 | -0.49604 | 3472 ft | 258 kts | 272° |
| 2026-05-06 17:44 | 51.40981 | -0.52438 | 4338 ft | 257 kts | 282° |
| 2026-05-06 17:44 | 51.41308 | -0.55288 | 4895 ft | 261 kts | 283° |
| 2026-05-06 17:45 | 51.41652 | -0.58161 | 5016 ft | 265 kts | 282° |
| 2026-05-06 17:45 | 51.42000 | -0.61073 | 5473 ft | 267 kts | 282° |
| 2026-05-06 17:45 | 51.42343 | -0.63989 | 6410 ft | 265 kts | 282° |
| 2026-05-06 17:45 | 51.42682 | -0.66857 | 7221 ft | 266 kts | 282° |
| 2026-05-06 17:46 | 51.43032 | -0.69812 | 7785 ft | 270 kts | 282° |
| 2026-05-06 17:46 | 51.43382 | -0.72770 | 7964 ft | 271 kts | 282° |
| 2026-05-06 17:46 | 51.43737 | -0.75753 | 7989 ft | 273 kts | 282° |
| 2026-05-06 17:46 | 51.44108 | -0.78742 | 7992 ft | 271 kts | 283° |
| 2026-05-06 17:47 | 51.44485 | -0.81691 | 7992 ft | 270 kts | 283° |
| 2026-05-06 17:47 | 51.44864 | -0.84644 | 7995 ft | 270 kts | 283° |
| 2026-05-06 17:47 | 51.45240 | -0.87594 | 7992 ft | 270 kts | 283° |
| 2026-05-06 17:47 | 51.45603 | -0.90548 | 8013 ft | 271 kts | 282° |
| 2026-05-06 17:48 | 51.45949 | -0.93561 | 8277 ft | 276 kts | 281° |
| 2026-05-06 17:48 | 51.46285 | -0.96595 | 9129 ft | 274 kts | 282° |
| 2026-05-06 17:48 | 51.46619 | -0.99580 | 9902 ft | 279 kts | 282° |
| 2026-05-06 17:48 | 51.46975 | -1.02727 | 10400 ft | 292 kts | 282° |
| 2026-05-06 17:49 | 51.47427 | -1.05966 | 10573 ft | 312 kts | 284° |
| 2026-05-06 17:49 | 51.47958 | -1.09454 | 10763 ft | 331 kts | 285° |
| 2026-05-06 17:49 | 51.48521 | -1.13108 | 11184 ft | 341 kts | 285° |
| 2026-05-06 17:49 | 51.49091 | -1.16810 | 11838 ft | 343 kts | 285° |
| 2026-05-06 17:50 | 51.49665 | -1.20556 | 12445 ft | 348 kts | 285° |
| 2026-05-06 17:50 | 51.50239 | -1.24331 | 13172 ft | 348 kts | 285° |
| 2026-05-06 17:50 | 51.50816 | -1.28136 | 13766 ft | 353 kts | 284° |
| 2026-05-06 17:50 | 51.51397 | -1.31981 | 14355 ft | 355 kts | 284° |
| 2026-05-06 17:51 | 51.51981 | -1.35862 | 14867 ft | 360 kts | 284° |
| 2026-05-06 17:51 | 51.52567 | -1.39765 | 15525 ft | 360 kts | 284° |
| 2026-05-06 17:51 | 51.53150 | -1.43659 | 15997 ft | 365 kts | 284° |
| 2026-05-06 17:51 | 51.53751 | -1.47680 | 16518 ft | 369 kts | 284° |
| 2026-05-06 17:52 | 51.54343 | -1.51653 | 17067 ft | 371 kts | 284° |
| 2026-05-06 17:52 | 51.54944 | -1.55695 | 17640 ft | 373 kts | 283° |
| 2026-05-06 17:52 | 51.55549 | -1.59774 | 18139 ft | 377 kts | 283° |
| 2026-05-06 17:52 | 51.56155 | -1.63876 | 18665 ft | 378 kts | 283° |
| 2026-05-06 17:53 | 51.56764 | -1.68001 | 19158 ft | 379 kts | 283° |
| 2026-05-06 17:53 | 51.57374 | -1.72149 | 19542 ft | 383 kts | 283° |
| 2026-05-06 17:53 | 51.57989 | -1.76341 | 20039 ft | 384 kts | 283° |
| 2026-05-06 17:53 | 51.58604 | -1.80542 | 20419 ft | 388 kts | 283° |
| 2026-05-06 17:54 | 51.59223 | -1.84784 | 20874 ft | 390 kts | 283° |
| 2026-05-06 17:54 | 51.59844 | -1.89049 | 21311 ft | 392 kts | 283° |
| 2026-05-06 17:54 | 51.60465 | -1.93333 | 21725 ft | 395 kts | 283° |
| 2026-05-06 17:54 | 51.61091 | -1.97656 | 22094 ft | 399 kts | 283° |
| 2026-05-06 17:55 | 51.61720 | -2.02019 | 22531 ft | 401 kts | 283° |
| 2026-05-06 17:55 | 51.62341 | -2.06332 | 22945 ft | 403 kts | 283° |
| 2026-05-06 17:55 | 51.62977 | -2.10758 | 23364 ft | 405 kts | 283° |
| 2026-05-06 17:55 | 51.63611 | -2.15192 | 23739 ft | 408 kts | 283° |
| 2026-05-06 17:56 | 51.64249 | -2.19661 | 24123 ft | 409 kts | 283° |
| 2026-05-06 17:56 | 51.64886 | -2.24142 | 24495 ft | 411 kts | 283° |
| 2026-05-06 17:56 | 51.65524 | -2.28641 | 24883 ft | 413 kts | 282° |
| 2026-05-06 17:56 | 51.66163 | -2.33158 | 25283 ft | 415 kts | 282° |
| 2026-05-06 17:57 | 51.66803 | -2.37699 | 25697 ft | 417 kts | 282° |
| 2026-05-06 17:57 | 51.67445 | -2.42269 | 26123 ft | 419 kts | 282° |
| 2026-05-06 17:57 | 51.68089 | -2.46862 | 26544 ft | 421 kts | 282° |
| 2026-05-06 17:57 | 51.68733 | -2.51479 | 26985 ft | 424 kts | 282° |
| 2026-05-06 17:58 | 51.69373 | -2.56071 | 27428 ft | 426 kts | 282° |
| 2026-05-06 17:58 | 51.70022 | -2.60743 | 27876 ft | 428 kts | 282° |
| 2026-05-06 17:58 | 51.70674 | -2.65454 | 28337 ft | 431 kts | 282° |
| 2026-05-06 17:58 | 51.71327 | -2.70186 | 28781 ft | 433 kts | 282° |
| 2026-05-06 17:59 | 51.71981 | -2.74947 | 29233 ft | 436 kts | 282° |
| 2026-05-06 17:59 | 51.72638 | -2.79736 | 29682 ft | 439 kts | 282° |
| 2026-05-06 17:59 | 51.73297 | -2.84564 | 30180 ft | 441 kts | 282° |
| 2026-05-06 17:59 | 51.73958 | -2.89419 | 30551 ft | 444 kts | 282° |
| 2026-05-06 18:00 | 51.74622 | -2.94311 | 30937 ft | 447 kts | 282° |
| 2026-05-06 18:00 | 51.75289 | -2.99240 | 31312 ft | 450 kts | 282° |
| 2026-05-06 18:00 | 51.75955 | -3.04186 | 31697 ft | 452 kts | 282° |
| 2026-05-06 18:00 | 51.76615 | -3.09092 | 32049 ft | 455 kts | 282° |
| 2026-05-06 18:01 | 51.77286 | -3.14110 | 32430 ft | 457 kts | 282° |
| 2026-05-06 18:01 | 51.77959 | -3.19149 | 32813 ft | 460 kts | 282° |
| 2026-05-06 18:01 | 51.78632 | -3.24212 | 33168 ft | 463 kts | 282° |
| 2026-05-06 18:01 | 51.79306 | -3.29304 | 33608 ft | 464 kts | 282° |
| 2026-05-06 18:02 | 51.79979 | -3.34403 | 34108 ft | 463 kts | 282° |
| 2026-05-06 18:02 | 51.80649 | -3.39498 | 34515 ft | 464 kts | 282° |
| 2026-05-06 18:02 | 51.81319 | -3.44608 | 34830 ft | 466 kts | 282° |
| 2026-05-06 18:02 | 51.81990 | -3.49742 | 35183 ft | 467 kts | 282° |
| 2026-05-06 18:03 | 51.82663 | -3.54888 | 35584 ft | 467 kts | 282° |
| 2026-05-06 18:03 | 51.83331 | -3.60034 | 35962 ft | 467 kts | 282° |
| 2026-05-06 18:03 | 51.83998 | -3.65178 | 36335 ft | 468 kts | 282° |
| 2026-05-06 18:03 | 51.84664 | -3.70325 | 36705 ft | 468 kts | 282° |
| 2026-05-06 18:04 | 51.85323 | -3.75432 | 37069 ft | 469 kts | 282° |
| 2026-05-06 18:04 | 51.85988 | -3.80602 | 37435 ft | 469 kts | 282° |
| 2026-05-06 18:04 | 51.86651 | -3.85777 | 37803 ft | 470 kts | 282° |
| 2026-05-06 18:04 | 51.87313 | -3.90970 | 38162 ft | 470 kts | 282° |
| 2026-05-06 18:05 | 51.87972 | -3.96152 | 38531 ft | 470 kts | 282° |
| 2026-05-06 18:05 | 51.88406 | -3.99585 | 38749 ft | 470 kts | 282° |
| 2026-05-06 18:05 | 51.89062 | -4.04776 | 39033 ft | 470 kts | 282° |
| 2026-05-06 18:05 | 51.89715 | -4.09966 | 39303 ft | 471 kts | 282° |
| 2026-05-06 18:06 | 51.90367 | -4.15165 | 39560 ft | 471 kts | 282° |
| 2026-05-06 18:06 | 51.91016 | -4.20366 | 39810 ft | 471 kts | 281° |
| 2026-05-06 18:06 | 51.91665 | -4.25585 | 39978 ft | 474 kts | 281° |
| 2026-05-06 18:06 | 51.92318 | -4.30857 | 40005 ft | 480 kts | 281° |
| 2026-05-06 18:07 | 51.93615 | -4.41382 | 40004 ft | 474 kts | 281° |
| 2026-05-06 18:07 | 51.94899 | -4.51897 | 40004 ft | 476 kts | 281° |
| 2026-05-06 18:08 | 51.96177 | -4.62434 | 40004 ft | 476 kts | 281° |
| 2026-05-06 18:08 | 51.97436 | -4.72904 | 39999 ft | 476 kts | 281° |
| 2026-05-06 18:09 | 51.98696 | -4.83460 | 40002 ft | 476 kts | 281° |
| 2026-05-06 18:09 | 51.99946 | -4.94021 | 39998 ft | 476 kts | 281° |
| 2026-05-06 18:10 | 52.01185 | -5.04578 | 40000 ft | 476 kts | 281° |
| 2026-05-06 18:10 | 52.02192 | -5.15124 | 40000 ft | 476 kts | 275° |
| 2026-05-06 18:11 | 52.02347 | -5.25889 | 40000 ft | 477 kts | 268° |
| 2026-05-06 18:11 | 52.01703 | -5.36617 | 40002 ft | 477 kts | 264° |
| 2026-05-06 18:12 | 52.00965 | -5.47340 | 40002 ft | 477 kts | 264° |
| 2026-05-06 18:12 | 52.00217 | -5.57978 | 40004 ft | 478 kts | 264° |
| 2026-05-06 18:13 | 51.99442 | -5.68698 | 40007 ft | 478 kts | 264° |
| 2026-05-06 18:13 | 51.98656 | -5.79396 | 40008 ft | 478 kts | 264° |
| 2026-05-06 18:14 | 51.97857 | -5.90138 | 40006 ft | 478 kts | 264° |
| 2026-05-06 18:14 | 51.97056 | -6.00780 | 40003 ft | 478 kts | 264° |
| 2026-05-06 18:15 | 51.96239 | -6.11494 | 40009 ft | 478 kts | 264° |
| 2026-05-06 18:15 | 51.95703 | -6.22229 | 40004 ft | 478 kts | 271° |
| 2026-05-06 18:16 | 51.96170 | -6.32957 | 40007 ft | 477 kts | 279° |
| 2026-05-06 18:16 | 51.97238 | -6.43595 | 40005 ft | 477 kts | 279° |
| 2026-05-06 18:17 | 51.98279 | -6.54230 | 39999 ft | 477 kts | 279° |
| 2026-05-06 18:17 | 51.99314 | -6.64801 | 40007 ft | 478 kts | 279° |
| 2026-05-06 18:18 | 52.00350 | -6.75449 | 40006 ft | 478 kts | 279° |
| 2026-05-06 18:18 | 52.01373 | -6.86111 | 40006 ft | 478 kts | 279° |
| 2026-05-06 18:19 | 52.02384 | -6.96787 | 40002 ft | 478 kts | 279° |
| 2026-05-06 18:19 | 52.03384 | -7.07467 | 40018 ft | 478 kts | 279° |
| 2026-05-06 18:20 | 52.04370 | -7.18092 | 40017 ft | 478 kts | 279° |
| 2026-05-06 18:20 | 52.05352 | -7.28787 | 40014 ft | 478 kts | 279° |
| 2026-05-06 18:21 | 52.06323 | -7.39474 | 40010 ft | 478 kts | 279° |
| 2026-05-06 18:21 | 52.07284 | -7.50158 | 39989 ft | 478 kts | 279° |
| 2026-05-06 18:22 | 52.08235 | -7.60846 | 39997 ft | 477 kts | 279° |
| 2026-05-06 18:22 | 52.09170 | -7.71463 | 39992 ft | 477 kts | 279° |
| 2026-05-06 18:23 | 52.10100 | -7.82143 | 39994 ft | 477 kts | 279° |
| 2026-05-06 18:23 | 52.11022 | -7.92842 | 39981 ft | 477 kts | 279° |
| 2026-05-06 18:24 | 52.11933 | -8.03533 | 39975 ft | 477 kts | 278° |
| 2026-05-06 18:24 | 52.12830 | -8.14170 | 39980 ft | 477 kts | 278° |
| 2026-05-06 18:25 | 52.13724 | -8.24901 | 39984 ft | 478 kts | 278° |
| 2026-05-06 18:25 | 52.14608 | -8.35623 | 39981 ft | 478 kts | 278° |
| 2026-05-06 18:26 | 52.15483 | -8.46368 | 39977 ft | 478 kts | 278° |
| 2026-05-06 18:26 | 52.16350 | -8.57131 | 39974 ft | 479 kts | 278° |
| 2026-05-06 18:27 | 52.17207 | -8.67898 | 39975 ft | 479 kts | 278° |
| 2026-05-06 18:27 | 52.18050 | -8.78613 | 39976 ft | 480 kts | 278° |
| 2026-05-06 18:28 | 52.18890 | -8.89423 | 39983 ft | 480 kts | 278° |
| 2026-05-06 18:28 | 52.19720 | -9.00238 | 39987 ft | 480 kts | 278° |
| 2026-05-06 18:29 | 52.20539 | -9.11042 | 39989 ft | 480 kts | 278° |
| 2026-05-06 18:29 | 52.21346 | -9.21803 | 39988 ft | 480 kts | 278° |
| 2026-05-06 18:30 | 52.22145 | -9.32614 | 39991 ft | 479 kts | 278° |
| 2026-05-06 18:30 | 52.22933 | -9.43413 | 39992 ft | 479 kts | 278° |
| 2026-05-06 18:31 | 52.23708 | -9.54165 | 39992 ft | 479 kts | 278° |
| 2026-05-06 18:31 | 52.24478 | -9.64977 | 39991 ft | 479 kts | 278° |
| 2026-05-06 18:32 | 52.25237 | -9.75786 | 39990 ft | 479 kts | 278° |
| 2026-05-06 18:32 | 52.25986 | -9.86602 | 39991 ft | 479 kts | 277° |
| 2026-05-06 18:33 | 52.26725 | -9.97423 | 39989 ft | 479 kts | 277° |
| 2026-05-06 18:33 | 52.27451 | -10.08189 | 39995 ft | 479 kts | 277° |
| 2026-05-06 18:34 | 52.28170 | -10.19009 | 39995 ft | 480 kts | 277° |
| 2026-05-06 18:34 | 52.28881 | -10.29867 | 39998 ft | 480 kts | 277° |
| 2026-05-06 18:35 | 52.29581 | -10.40707 | 40001 ft | 480 kts | 277° |
| 2026-05-06 18:35 | 52.30272 | -10.51555 | 40008 ft | 480 kts | 277° |
| 2026-05-06 18:36 | 52.30952 | -10.62400 | 40008 ft | 479 kts | 277° |
| 2026-05-06 18:36 | 52.31621 | -10.73231 | 40001 ft | 479 kts | 277° |
| 2026-05-06 18:37 | 52.32170 | -10.82232 | 39999 ft | 478 kts | 277° |
| 2026-05-06 18:37 | 52.32926 | -10.94835 | 39997 ft | 478 kts | 277° |
| 2026-05-06 18:38 | 52.33564 | -11.05656 | 39992 ft | 477 kts | 277° |
| 2026-05-06 18:38 | 52.34188 | -11.16407 | 39992 ft | 477 kts | 277° |
| 2026-05-06 18:39 | 52.34807 | -11.27238 | 39991 ft | 477 kts | 276° |
| 2026-05-06 18:40 | 52.35715 | -11.43461 | 39996 ft | 477 kts | 276° |
| 2026-05-06 18:40 | 52.36309 | -11.54284 | 39998 ft | 477 kts | 276° |
| 2026-05-06 18:41 | 52.36888 | -11.65029 | 39993 ft | 477 kts | 276° |
| 2026-05-06 18:41 | 52.37461 | -11.75855 | 39993 ft | 477 kts | 276° |
| 2026-05-06 18:42 | 52.38025 | -11.86699 | 39999 ft | 477 kts | 276° |
| 2026-05-06 18:42 | 52.38577 | -11.97484 | 39998 ft | 477 kts | 276° |
| 2026-05-06 18:43 | 52.39121 | -12.08328 | 40002 ft | 477 kts | 276° |
| 2026-05-06 18:43 | 52.39654 | -12.19151 | 40020 ft | 476 kts | 276° |
| 2026-05-06 18:44 | 52.40176 | -12.29962 | 40012 ft | 476 kts | 276° |
| 2026-05-06 18:44 | 52.40688 | -12.40760 | 40002 ft | 475 kts | 276° |
| 2026-05-06 18:45 | 52.41187 | -12.51481 | 39995 ft | 474 kts | 275° |
| 2026-05-06 18:45 | 52.41678 | -12.62249 | 39992 ft | 473 kts | 275° |
| 2026-05-06 18:46 | 52.42158 | -12.73005 | 39988 ft | 473 kts | 275° |
| 2026-05-06 18:46 | 52.42626 | -12.83707 | 39989 ft | 473 kts | 275° |
| 2026-05-06 18:47 | 52.43087 | -12.94456 | 39987 ft | 473 kts | 275° |
| 2026-05-06 18:47 | 52.43537 | -13.05203 | 39980 ft | 473 kts | 275° |
| 2026-05-06 18:48 | 52.43979 | -13.15977 | 39984 ft | 473 kts | 275° |
| 2026-05-06 18:48 | 52.44410 | -13.26738 | 39989 ft | 473 kts | 275° |
| 2026-05-06 18:49 | 52.44832 | -13.37515 | 39992 ft | 474 kts | 275° |
| 2026-05-06 18:49 | 52.45243 | -13.48260 | 39988 ft | 474 kts | 275° |
| 2026-05-06 18:50 | 52.45647 | -13.59063 | 39988 ft | 474 kts | 274° |
| 2026-05-06 18:50 | 52.46038 | -13.69790 | 39997 ft | 474 kts | 274° |
| 2026-05-06 18:51 | 52.46421 | -13.80576 | 40001 ft | 473 kts | 274° |
| 2026-05-06 18:51 | 52.46794 | -13.91355 | 40004 ft | 473 kts | 274° |
| 2026-05-06 18:52 | 52.47156 | -14.02118 | 39998 ft | 472 kts | 274° |
| 2026-05-06 18:52 | 52.47508 | -14.12865 | 39972 ft | 472 kts | 274° |
| 2026-05-06 18:53 | 52.47851 | -14.23611 | 39971 ft | 472 kts | 274° |
| 2026-05-06 18:53 | 52.48183 | -14.34366 | 39973 ft | 472 kts | 274° |
| 2026-05-06 18:54 | 52.48452 | -14.43300 | 39971 ft | 472 kts | 274° |
| 2026-05-06 18:54 | 52.48818 | -14.55830 | 39978 ft | 472 kts | 273° |
| 2026-05-06 18:55 | 52.49074 | -14.64800 | 39979 ft | 473 kts | 273° |
| 2026-05-06 18:55 | 52.49377 | -14.75589 | 39980 ft | 473 kts | 273° |
| 2026-05-06 18:56 | 52.49673 | -14.86381 | 39989 ft | 473 kts | 273° |
| 2026-05-06 18:56 | 52.49960 | -14.97188 | 39992 ft | 474 kts | 273° |
| 2026-05-06 18:57 | 52.50633 | -15.07945 | 39972 ft | 473 kts | 282° |
| 2026-05-06 18:57 | 52.52109 | -15.18385 | 39979 ft | 473 kts | 283° |
| 2026-05-06 18:58 | 52.53497 | -15.28979 | 39979 ft | 473 kts | 282° |
| 2026-05-06 18:58 | 52.54782 | -15.39604 | 39978 ft | 474 kts | 281° |
| 2026-05-06 18:59 | 52.56030 | -15.50167 | 39976 ft | 474 kts | 281° |
| 2026-05-06 18:59 | 52.57278 | -15.60812 | 39984 ft | 474 kts | 281° |
| 2026-05-06 19:00 | 52.58518 | -15.71475 | 39984 ft | 474 kts | 281° |
| 2026-05-06 19:00 | 52.59751 | -15.82156 | 39986 ft | 474 kts | 281° |
| 2026-05-06 19:01 | 52.60972 | -15.92826 | 39982 ft | 474 kts | 281° |
| 2026-05-06 19:01 | 52.62175 | -16.03428 | 39983 ft | 474 kts | 281° |
| 2026-05-06 19:02 | 52.63377 | -16.14115 | 39981 ft | 474 kts | 281° |
| 2026-05-06 19:02 | 52.64568 | -16.24785 | 39973 ft | 474 kts | 280° |
| 2026-05-06 19:03 | 52.65750 | -16.35468 | 39969 ft | 473 kts | 280° |
| 2026-05-06 19:03 | 52.66912 | -16.46072 | 39972 ft | 472 kts | 280° |
| 2026-05-06 19:04 | 52.68071 | -16.56735 | 39975 ft | 472 kts | 280° |
| 2026-05-06 19:04 | 52.69221 | -16.67406 | 39968 ft | 472 kts | 279° |
| 2026-05-06 19:05 | 52.70362 | -16.78090 | 39965 ft | 472 kts | 279° |
| 2026-05-06 19:05 | 52.71493 | -16.88770 | 39972 ft | 472 kts | 279° |
| 2026-05-06 19:06 | 52.72606 | -16.99388 | 39970 ft | 472 kts | 279° |
| 2026-05-06 19:06 | 52.73720 | -17.10109 | 39968 ft | 473 kts | 279° |
| 2026-05-06 19:07 | 52.74821 | -17.20805 | 39973 ft | 473 kts | 279° |
| 2026-05-06 19:07 | 52.75908 | -17.31452 | 39974 ft | 473 kts | 279° |
| 2026-05-06 19:08 | 52.76991 | -17.42165 | 39968 ft | 472 kts | 278° |
| 2026-05-06 19:08 | 52.78063 | -17.52874 | 39970 ft | 472 kts | 278° |
| 2026-05-06 19:09 | 52.79123 | -17.63565 | 39976 ft | 471 kts | 278° |
| 2026-05-06 19:09 | 52.80167 | -17.74196 | 39968 ft | 471 kts | 278° |
| 2026-05-06 19:10 | 52.81208 | -17.84890 | 39966 ft | 471 kts | 278° |
| 2026-05-06 19:10 | 52.82239 | -17.95593 | 39968 ft | 471 kts | 278° |
| 2026-05-06 19:11 | 52.83261 | -18.06305 | 39968 ft | 471 kts | 278° |
| 2026-05-06 19:11 | 52.84272 | -18.17005 | 39966 ft | 470 kts | 278° |
| 2026-05-06 19:12 | 52.85267 | -18.27644 | 39974 ft | 470 kts | 278° |
| 2026-05-06 19:12 | 52.86259 | -18.38360 | 39971 ft | 470 kts | 277° |
| 2026-05-06 19:13 | 52.87240 | -18.49064 | 39971 ft | 470 kts | 277° |
| 2026-05-06 19:13 | 52.88211 | -18.59770 | 39961 ft | 470 kts | 277° |
| 2026-05-06 19:14 | 52.89174 | -18.70499 | 39962 ft | 470 kts | 277° |
| 2026-05-06 19:14 | 52.90125 | -18.81214 | 39967 ft | 470 kts | 277° |
| 2026-05-06 19:15 | 52.91063 | -18.91887 | 39971 ft | 471 kts | 277° |
| 2026-05-06 19:15 | 52.91998 | -19.02635 | 39973 ft | 471 kts | 277° |
| 2026-05-06 19:16 | 52.92923 | -19.13398 | 39970 ft | 472 kts | 277° |
| 2026-05-06 19:16 | 52.93840 | -19.24177 | 39977 ft | 472 kts | 277° |
| 2026-05-06 19:17 | 52.94748 | -19.34964 | 39974 ft | 472 kts | 277° |
| 2026-05-06 19:17 | 52.95640 | -19.45691 | 39977 ft | 472 kts | 277° |
| 2026-05-06 19:18 | 52.96529 | -19.56498 | 39977 ft | 472 kts | 277° |
| 2026-05-06 19:18 | 52.97406 | -19.67294 | 39975 ft | 472 kts | 276° |
| 2026-05-06 19:19 | 52.98275 | -19.78100 | 39971 ft | 472 kts | 276° |
| 2026-05-06 19:19 | 52.99132 | -19.88834 | 39975 ft | 472 kts | 276° |
| 2026-05-06 19:20 | 52.99954 | -19.99647 | 39978 ft | 472 kts | 275° |
| 2026-05-06 19:20 | 53.00400 | -20.10536 | 39979 ft | 472 kts | 272° |
| 2026-05-06 19:21 | 53.00839 | -20.21411 | 39977 ft | 472 kts | 273° |
| 2026-05-06 19:21 | 53.01289 | -20.32313 | 39986 ft | 472 kts | 273° |
| 2026-05-06 19:22 | 53.01722 | -20.43135 | 39974 ft | 472 kts | 273° |
| 2026-05-06 19:22 | 53.02146 | -20.54055 | 39984 ft | 472 kts | 273° |
| 2026-05-06 19:23 | 53.02555 | -20.64949 | 39987 ft | 473 kts | 273° |
| 2026-05-06 19:23 | 53.02947 | -20.75782 | 39988 ft | 473 kts | 272° |
| 2026-05-06 19:24 | 53.03330 | -20.86684 | 39986 ft | 473 kts | 273° |
| 2026-05-06 19:24 | 53.03704 | -20.97599 | 39986 ft | 473 kts | 272° |
| 2026-05-06 19:25 | 53.04068 | -21.08516 | 39986 ft | 473 kts | 272° |
| 2026-05-06 19:25 | 53.04422 | -21.19438 | 39986 ft | 473 kts | 272° |
| 2026-05-06 19:26 | 53.04766 | -21.30370 | 39991 ft | 473 kts | 272° |
| 2026-05-06 19:26 | 53.05101 | -21.41306 | 39990 ft | 473 kts | 272° |
| 2026-05-06 19:27 | 53.05423 | -21.52179 | 39998 ft | 474 kts | 272° |
| 2026-05-06 19:27 | 53.05738 | -21.63122 | 39998 ft | 474 kts | 272° |
| 2026-05-06 19:28 | 53.06042 | -21.74068 | 39991 ft | 473 kts | 272° |
| 2026-05-06 19:28 | 53.06336 | -21.85000 | 39991 ft | 473 kts | 272° |
| 2026-05-06 19:29 | 53.06620 | -21.95948 | 39988 ft | 473 kts | 272° |
| 2026-05-06 19:29 | 53.06894 | -22.06892 | 39988 ft | 474 kts | 272° |
| 2026-05-06 19:30 | 53.07157 | -22.17772 | 39989 ft | 474 kts | 272° |
| 2026-05-06 19:30 | 53.07411 | -22.28727 | 39990 ft | 474 kts | 272° |
| 2026-05-06 19:31 | 53.07656 | -22.39696 | 40001 ft | 474 kts | 272° |
| 2026-05-06 19:31 | 53.08004 | -22.56178 | 39995 ft | 475 kts | 272° |
| 2026-05-06 19:32 | 53.08224 | -22.67165 | 40008 ft | 475 kts | 272° |
| 2026-05-06 19:32 | 53.08432 | -22.78093 | 39997 ft | 476 kts | 272° |
| 2026-05-06 19:33 | 53.08632 | -22.89098 | 39999 ft | 476 kts | 271° |
| 2026-05-06 19:33 | 53.08822 | -23.00108 | 40001 ft | 476 kts | 271° |
| 2026-05-06 19:34 | 53.09001 | -23.11136 | 39998 ft | 476 kts | 271° |
| 2026-05-06 19:34 | 53.09171 | -23.22163 | 40002 ft | 477 kts | 271° |
| 2026-05-06 19:35 | 53.09330 | -23.33197 | 40000 ft | 477 kts | 271° |
| 2026-05-06 19:35 | 53.09480 | -23.44245 | 40007 ft | 477 kts | 271° |
| 2026-05-06 19:36 | 53.09618 | -23.55240 | 39998 ft | 477 kts | 271° |
| 2026-05-06 19:36 | 53.09747 | -23.66282 | 39999 ft | 477 kts | 271° |
| 2026-05-06 19:37 | 53.09865 | -23.77328 | 40001 ft | 478 kts | 271° |
| 2026-05-06 19:37 | 53.09957 | -23.86537 | 40008 ft | 478 kts | 271° |
| 2026-05-06 19:38 | 53.10073 | -23.99459 | 40000 ft | 478 kts | 271° |
| 2026-05-06 19:38 | 53.10161 | -24.10543 | 40005 ft | 483 kts | 271° |
| 2026-05-06 19:39 | 53.10241 | -24.21880 | 40008 ft | 495 kts | 271° |
| 2026-05-06 19:39 | 53.10310 | -24.33243 | 40005 ft | 490 kts | 271° |
| 2026-05-06 19:40 | 53.10367 | -24.44530 | 40000 ft | 491 kts | 271° |
| 2026-05-06 19:40 | 53.10415 | -24.55910 | 40007 ft | 491 kts | 271° |
| 2026-05-06 19:41 | 53.10451 | -24.67275 | 39997 ft | 491 kts | 270° |
| 2026-05-06 19:41 | 53.10477 | -24.78684 | 40006 ft | 493 kts | 270° |
| 2026-05-06 19:42 | 53.10490 | -24.88190 | 40014 ft | 494 kts | 270° |
| 2026-05-06 19:42 | 53.10496 | -25.01503 | 40017 ft | 494 kts | 270° |
| 2026-05-06 19:43 | 53.10491 | -25.11030 | 40021 ft | 495 kts | 270° |
| 2026-05-06 19:43 | 53.10475 | -25.22489 | 40020 ft | 494 kts | 270° |
| 2026-05-06 19:44 | 53.10448 | -25.33909 | 40008 ft | 493 kts | 270° |
| 2026-05-06 19:44 | 53.10410 | -25.45347 | 40000 ft | 493 kts | 270° |
| 2026-05-06 19:45 | 53.10361 | -25.56699 | 40003 ft | 492 kts | 270° |
| 2026-05-06 19:45 | 53.10302 | -25.68091 | 39995 ft | 492 kts | 270° |
| 2026-05-06 19:46 | 53.10231 | -25.79492 | 39989 ft | 492 kts | 270° |
| 2026-05-06 19:46 | 53.10150 | -25.90876 | 39985 ft | 492 kts | 270° |
| 2026-05-06 19:47 | 53.10058 | -26.02279 | 39993 ft | 492 kts | 270° |
| 2026-05-06 19:47 | 53.09955 | -26.13596 | 39995 ft | 492 kts | 270° |
| 2026-05-06 19:48 | 53.09841 | -26.25017 | 39999 ft | 493 kts | 269° |
| 2026-05-06 19:48 | 53.09716 | -26.36436 | 39996 ft | 493 kts | 269° |
| 2026-05-06 19:49 | 53.09580 | -26.47861 | 39997 ft | 493 kts | 269° |
| 2026-05-06 19:49 | 53.09432 | -26.59292 | 40008 ft | 493 kts | 269° |
| 2026-05-06 19:50 | 53.09276 | -26.70612 | 40001 ft | 493 kts | 269° |
| 2026-05-06 19:50 | 53.09107 | -26.82019 | 39997 ft | 493 kts | 269° |
| 2026-05-06 19:51 | 53.08928 | -26.93430 | 39996 ft | 493 kts | 269° |
| 2026-05-06 19:51 | 53.08737 | -27.04826 | 39995 ft | 493 kts | 269° |
| 2026-05-06 19:52 | 53.08536 | -27.16234 | 39993 ft | 492 kts | 269° |
| 2026-05-06 19:52 | 53.08324 | -27.27615 | 39990 ft | 492 kts | 269° |
| 2026-05-06 19:53 | 53.08102 | -27.39002 | 39993 ft | 492 kts | 269° |
| 2026-05-06 19:53 | 53.07870 | -27.50307 | 39982 ft | 493 kts | 269° |
| 2026-05-06 19:54 | 53.07624 | -27.61700 | 39993 ft | 492 kts | 269° |
| 2026-05-06 19:54 | 53.07369 | -27.73086 | 39983 ft | 493 kts | 269° |
| 2026-05-06 19:55 | 53.07103 | -27.84474 | 39984 ft | 493 kts | 269° |
| 2026-05-06 19:55 | 53.06826 | -27.95864 | 39984 ft | 493 kts | 268° |
| 2026-05-06 19:56 | 53.06537 | -28.07252 | 39986 ft | 493 kts | 269° |
| 2026-05-06 19:56 | 53.06239 | -28.18620 | 39985 ft | 494 kts | 269° |
| 2026-05-06 19:57 | 53.05928 | -28.30042 | 39984 ft | 494 kts | 268° |
| 2026-05-06 19:57 | 53.05606 | -28.41472 | 39983 ft | 493 kts | 268° |
| 2026-05-06 19:58 | 53.05276 | -28.52797 | 39979 ft | 494 kts | 268° |
| 2026-05-06 19:58 | 53.04933 | -28.64190 | 39967 ft | 494 kts | 268° |
| 2026-05-06 19:59 | 53.04578 | -28.75609 | 39977 ft | 494 kts | 268° |
| 2026-05-06 19:59 | 53.04213 | -28.87018 | 39971 ft | 494 kts | 268° |
| 2026-05-06 20:00 | 53.03837 | -28.98423 | 39979 ft | 494 kts | 268° |
| 2026-05-06 20:00 | 53.03452 | -29.09763 | 39968 ft | 495 kts | 268° |
| 2026-05-06 20:01 | 53.03053 | -29.21190 | 39964 ft | 495 kts | 268° |
| 2026-05-06 20:01 | 53.02643 | -29.32626 | 39961 ft | 496 kts | 268° |
| 2026-05-06 20:02 | 53.02221 | -29.44083 | 39970 ft | 496 kts | 268° |
| 2026-05-06 20:02 | 53.01788 | -29.55531 | 39964 ft | 497 kts | 268° |
| 2026-05-06 20:03 | 53.01352 | -29.66915 | 39969 ft | 497 kts | 268° |
| 2026-05-06 20:03 | 53.00906 | -29.78399 | 39963 ft | 498 kts | 268° |
| 2026-05-06 20:04 | 53.00450 | -29.89891 | 39964 ft | 498 kts | 268° |
| 2026-05-06 20:04 | 52.99992 | -30.01405 | 39962 ft | 499 kts | 268° |
| 2026-05-06 20:05 | 52.99783 | -30.12857 | 39967 ft | 499 kts | 271° |
| 2026-05-06 20:05 | 52.99734 | -30.24384 | 39963 ft | 499 kts | 271° |
| 2026-05-06 20:06 | 52.99647 | -30.35905 | 39971 ft | 499 kts | 271° |
| 2026-05-06 20:06 | 52.99533 | -30.47364 | 39962 ft | 499 kts | 270° |
| 2026-05-06 20:07 | 52.99404 | -30.58869 | 39984 ft | 498 kts | 270° |
| 2026-05-06 20:07 | 52.99257 | -30.70391 | 39969 ft | 498 kts | 270° |
| 2026-05-06 20:08 | 52.99096 | -30.81898 | 39972 ft | 498 kts | 270° |
| 2026-05-06 20:08 | 52.98923 | -30.93392 | 39979 ft | 498 kts | 270° |
| 2026-05-06 20:09 | 52.98741 | -31.04831 | 39967 ft | 498 kts | 270° |
| 2026-05-06 20:09 | 52.98546 | -31.16339 | 39981 ft | 499 kts | 270° |
| 2026-05-06 20:10 | 52.98340 | -31.27872 | 39980 ft | 500 kts | 270° |
| 2026-05-06 20:10 | 52.98122 | -31.39407 | 39986 ft | 500 kts | 270° |
| 2026-05-06 20:11 | 52.97893 | -31.50957 | 39989 ft | 500 kts | 270° |
| 2026-05-06 20:11 | 52.97654 | -31.62458 | 39994 ft | 501 kts | 270° |
| 2026-05-06 20:12 | 52.97403 | -31.74007 | 39994 ft | 501 kts | 270° |
| 2026-05-06 20:12 | 52.97140 | -31.85559 | 40004 ft | 501 kts | 269° |
| 2026-05-06 20:13 | 52.96866 | -31.97133 | 40001 ft | 501 kts | 269° |
| 2026-05-06 20:13 | 52.96582 | -32.08620 | 40004 ft | 501 kts | 269° |
| 2026-05-06 20:14 | 52.96285 | -32.20190 | 40004 ft | 501 kts | 269° |
| 2026-05-06 20:14 | 52.95978 | -32.31738 | 40007 ft | 501 kts | 269° |
| 2026-05-06 20:15 | 52.95661 | -32.43227 | 40007 ft | 501 kts | 269° |
| 2026-05-06 20:15 | 52.95330 | -32.54808 | 40014 ft | 501 kts | 269° |
| 2026-05-06 20:16 | 52.94989 | -32.66369 | 40012 ft | 502 kts | 269° |
| 2026-05-06 20:16 | 52.94636 | -32.77930 | 40020 ft | 502 kts | 269° |
| 2026-05-06 20:17 | 52.94274 | -32.89410 | 40019 ft | 502 kts | 269° |
| 2026-05-06 20:17 | 52.93899 | -33.00961 | 40025 ft | 502 kts | 269° |
| 2026-05-06 20:18 | 52.93512 | -33.12530 | 40023 ft | 502 kts | 269° |
| 2026-05-06 20:18 | 52.93114 | -33.24088 | 40032 ft | 502 kts | 269° |
| 2026-05-06 20:19 | 52.92706 | -33.35622 | 40033 ft | 502 kts | 269° |
| 2026-05-06 20:19 | 52.92288 | -33.47122 | 40039 ft | 502 kts | 268° |
| 2026-05-06 20:20 | 52.91857 | -33.58667 | 40040 ft | 502 kts | 268° |
| 2026-05-06 20:20 | 52.91415 | -33.70217 | 40047 ft | 502 kts | 268° |
| 2026-05-06 20:21 | 52.90960 | -33.81773 | 40050 ft | 502 kts | 268° |
| 2026-05-06 20:21 | 52.90495 | -33.93320 | 40053 ft | 502 kts | 268° |
| 2026-05-06 20:22 | 52.90019 | -34.04867 | 40048 ft | 502 kts | 268° |
| 2026-05-06 20:22 | 52.89535 | -34.16332 | 40058 ft | 502 kts | 268° |
| 2026-05-06 20:23 | 52.89037 | -34.27864 | 40056 ft | 502 kts | 268° |
| 2026-05-06 20:23 | 52.88527 | -34.39399 | 40063 ft | 501 kts | 268° |
| 2026-05-06 20:24 | 52.88006 | -34.50930 | 40064 ft | 501 kts | 268° |
| 2026-05-06 20:24 | 52.87479 | -34.62372 | 40070 ft | 501 kts | 268° |
| 2026-05-06 20:25 | 52.86936 | -34.73885 | 40067 ft | 501 kts | 268° |
| 2026-05-06 20:25 | 52.86383 | -34.85390 | 40074 ft | 501 kts | 268° |
| 2026-05-06 20:26 | 52.85819 | -34.96882 | 40084 ft | 501 kts | 268° |
| 2026-05-06 20:26 | 52.85246 | -35.08321 | 40084 ft | 500 kts | 268° |
| 2026-05-06 20:27 | 52.84661 | -35.19802 | 40086 ft | 500 kts | 268° |
| 2026-05-06 20:27 | 52.84064 | -35.31281 | 40092 ft | 500 kts | 268° |
| 2026-05-06 20:28 | 52.83457 | -35.42742 | 40090 ft | 500 kts | 268° |
| 2026-05-06 20:28 | 52.82838 | -35.54209 | 40094 ft | 500 kts | 268° |
| 2026-05-06 20:29 | 52.82208 | -35.65668 | 40096 ft | 500 kts | 268° |
| 2026-05-06 20:29 | 52.81569 | -35.77111 | 40100 ft | 500 kts | 268° |
| 2026-05-06 20:30 | 52.80593 | -35.94194 | 40103 ft | 499 kts | 268° |
| 2026-05-06 20:31 | 52.79926 | -36.05626 | 40086 ft | 499 kts | 268° |
| 2026-05-06 20:31 | 52.79248 | -36.17033 | 40118 ft | 498 kts | 268° |
| 2026-05-06 20:32 | 52.78561 | -36.28432 | 40109 ft | 498 kts | 268° |
| 2026-05-06 20:32 | 52.77983 | -36.37886 | 40107 ft | 498 kts | 268° |
| 2026-05-06 20:33 | 52.77277 | -36.49256 | 40111 ft | 498 kts | 267° |
| 2026-05-06 20:33 | 52.76563 | -36.60571 | 40110 ft | 497 kts | 267° |
| 2026-05-06 20:34 | 52.75834 | -36.71942 | 40124 ft | 497 kts | 267° |
| 2026-05-06 20:34 | 52.75096 | -36.83296 | 40122 ft | 496 kts | 267° |
| 2026-05-06 20:35 | 52.74348 | -36.94630 | 40125 ft | 496 kts | 267° |
| 2026-05-06 20:35 | 52.73595 | -37.05875 | 40124 ft | 496 kts | 267° |
| 2026-05-06 20:36 | 52.72826 | -37.17196 | 40126 ft | 496 kts | 267° |
| 2026-05-06 20:36 | 52.72047 | -37.28489 | 40134 ft | 495 kts | 267° |
| 2026-05-06 20:37 | 52.71259 | -37.39775 | 40143 ft | 495 kts | 267° |
| 2026-05-06 20:37 | 52.70460 | -37.51046 | 40140 ft | 494 kts | 267° |
| 2026-05-06 20:38 | 52.69650 | -37.62319 | 40135 ft | 494 kts | 267° |
| 2026-05-06 20:38 | 52.68837 | -37.73495 | 40133 ft | 494 kts | 267° |
| 2026-05-06 20:39 | 52.68007 | -37.84733 | 40146 ft | 493 kts | 267° |
| 2026-05-06 20:39 | 52.67169 | -37.95946 | 40146 ft | 493 kts | 267° |
| 2026-05-06 20:40 | 52.66319 | -38.07176 | 40148 ft | 492 kts | 266° |
| 2026-05-06 20:40 | 52.65466 | -38.18288 | 40141 ft | 492 kts | 266° |
| 2026-05-06 20:41 | 52.64599 | -38.29458 | 40141 ft | 492 kts | 266° |
| 2026-05-06 20:41 | 52.63721 | -38.40616 | 40141 ft | 492 kts | 266° |
| 2026-05-06 20:42 | 52.62832 | -38.51794 | 40145 ft | 492 kts | 266° |
| 2026-05-06 20:42 | 52.61932 | -38.62959 | 40146 ft | 492 kts | 266° |
| 2026-05-06 20:43 | 52.61020 | -38.74134 | 40151 ft | 492 kts | 266° |
| 2026-05-06 20:43 | 52.60105 | -38.85227 | 40147 ft | 492 kts | 266° |
| 2026-05-06 20:44 | 52.59173 | -38.96381 | 40155 ft | 491 kts | 266° |
| 2026-05-06 20:44 | 52.58232 | -39.07524 | 40159 ft | 491 kts | 266° |
| 2026-05-06 20:45 | 52.57282 | -39.18641 | 40152 ft | 491 kts | 266° |
| 2026-05-06 20:45 | 52.56321 | -39.29756 | 40158 ft | 491 kts | 266° |
| 2026-05-06 20:46 | 52.55354 | -39.40824 | 40157 ft | 490 kts | 266° |
| 2026-05-06 20:46 | 52.54374 | -39.51915 | 40166 ft | 489 kts | 266° |
| 2026-05-06 20:47 | 52.53389 | -39.62970 | 40167 ft | 489 kts | 266° |
| 2026-05-06 20:47 | 52.52399 | -39.74028 | 40161 ft | 488 kts | 266° |
| 2026-05-06 20:48 | 52.51410 | -39.84976 | 40153 ft | 488 kts | 266° |
| 2026-05-06 20:48 | 52.50240 | -39.95964 | 40152 ft | 490 kts | 262° |
| 2026-05-06 20:49 | 52.48615 | -40.06842 | 40170 ft | 491 kts | 259° |
| 2026-05-06 20:49 | 52.46510 | -40.17518 | 40172 ft | 492 kts | 257° |
| 2026-05-06 20:50 | 52.44403 | -40.28178 | 40158 ft | 491 kts | 257° |
| 2026-05-06 20:50 | 52.42314 | -40.38756 | 40168 ft | 490 kts | 257° |
| 2026-05-06 20:51 | 52.40199 | -40.49388 | 40141 ft | 490 kts | 257° |
| 2026-05-06 20:51 | 52.38082 | -40.59945 | 40159 ft | 485 kts | 257° |
| 2026-05-06 20:52 | 52.35960 | -40.70458 | 40161 ft | 486 kts | 257° |
| 2026-05-06 20:52 | 52.33840 | -40.80886 | 40163 ft | 486 kts | 257° |
| 2026-05-06 20:53 | 52.31695 | -40.91377 | 40160 ft | 486 kts | 257° |
| 2026-05-06 20:53 | 52.29536 | -41.01878 | 40173 ft | 485 kts | 257° |
| 2026-05-06 20:54 | 52.27378 | -41.12323 | 40170 ft | 485 kts | 256° |
| 2026-05-06 20:54 | 52.25219 | -41.22715 | 40164 ft | 485 kts | 256° |
| 2026-05-06 20:55 | 52.23047 | -41.33117 | 40161 ft | 484 kts | 256° |
| 2026-05-06 20:55 | 52.20864 | -41.43517 | 40162 ft | 484 kts | 256° |
| 2026-05-06 20:56 | 52.18678 | -41.53876 | 40172 ft | 483 kts | 256° |
| 2026-05-06 20:56 | 52.16487 | -41.64209 | 40167 ft | 482 kts | 256° |
| 2026-05-06 20:57 | 52.14287 | -41.74533 | 40156 ft | 482 kts | 256° |
| 2026-05-06 20:57 | 52.12085 | -41.84811 | 40169 ft | 481 kts | 256° |
| 2026-05-06 20:58 | 52.09885 | -41.95026 | 40147 ft | 479 kts | 256° |
| 2026-05-06 20:58 | 52.07690 | -42.05164 | 40157 ft | 473 kts | 256° |
| 2026-05-06 20:59 | 52.05492 | -42.15280 | 40157 ft | 474 kts | 256° |
| 2026-05-06 20:59 | 52.03285 | -42.25383 | 40156 ft | 474 kts | 256° |
| 2026-05-06 21:00 | 52.01081 | -42.35417 | 40155 ft | 475 kts | 256° |
| 2026-05-06 21:00 | 51.98858 | -42.45495 | 40141 ft | 474 kts | 255° |
| 2026-05-06 21:01 | 51.96628 | -42.55552 | 40139 ft | 473 kts | 255° |
| 2026-05-06 21:01 | 51.94388 | -42.65608 | 40138 ft | 474 kts | 255° |
| 2026-05-06 21:02 | 51.92140 | -42.75651 | 40138 ft | 475 kts | 255° |
| 2026-05-06 21:02 | 51.89877 | -42.85707 | 40144 ft | 475 kts | 255° |
| 2026-05-06 21:03 | 51.87604 | -42.95770 | 40145 ft | 475 kts | 254° |
| 2026-05-06 21:03 | 51.85334 | -43.05761 | 40149 ft | 476 kts | 254° |
| 2026-05-06 21:04 | 51.83035 | -43.15834 | 40152 ft | 477 kts | 254° |
| 2026-05-06 21:04 | 51.80727 | -43.25900 | 40143 ft | 477 kts | 254° |
| 2026-05-06 21:05 | 51.78407 | -43.35970 | 40147 ft | 478 kts | 253° |
| 2026-05-06 21:05 | 51.76094 | -43.45962 | 40146 ft | 478 kts | 253° |
| 2026-05-06 21:06 | 51.73751 | -43.56037 | 40143 ft | 478 kts | 253° |
| 2026-05-06 21:06 | 51.71405 | -43.66078 | 40147 ft | 478 kts | 253° |
| 2026-05-06 21:07 | 51.69063 | -43.76056 | 40145 ft | 478 kts | 253° |
| 2026-05-06 21:07 | 51.66701 | -43.86069 | 40149 ft | 477 kts | 253° |
| 2026-05-06 21:08 | 51.64331 | -43.96072 | 40141 ft | 477 kts | 253° |
| 2026-05-06 21:08 | 51.61974 | -44.05975 | 40139 ft | 476 kts | 253° |
| 2026-05-06 21:09 | 51.59594 | -44.15928 | 40138 ft | 476 kts | 253° |
| 2026-05-06 21:09 | 51.57210 | -44.25855 | 40128 ft | 475 kts | 253° |
| 2026-05-06 21:10 | 51.54819 | -44.35762 | 40145 ft | 474 kts | 252° |
| 2026-05-06 21:10 | 51.52444 | -44.45562 | 40136 ft | 474 kts | 252° |
| 2026-05-06 21:11 | 51.50031 | -44.55472 | 40127 ft | 473 kts | 252° |
| 2026-05-06 21:11 | 51.47640 | -44.65248 | 40125 ft | 473 kts | 252° |
| 2026-05-06 21:12 | 51.45227 | -44.75071 | 40136 ft | 472 kts | 252° |
| 2026-05-06 21:12 | 51.42812 | -44.84855 | 40136 ft | 472 kts | 252° |
| 2026-05-06 21:13 | 51.40391 | -44.94621 | 40126 ft | 472 kts | 252° |
| 2026-05-06 21:13 | 51.37962 | -45.04378 | 40124 ft | 472 kts | 252° |
| 2026-05-06 21:14 | 51.35524 | -45.14128 | 40106 ft | 471 kts | 252° |
| 2026-05-06 21:14 | 51.33099 | -45.23783 | 40134 ft | 470 kts | 252° |
| 2026-05-06 21:15 | 51.30653 | -45.33481 | 40133 ft | 469 kts | 252° |
| 2026-05-06 21:15 | 51.28200 | -45.43165 | 40125 ft | 469 kts | 252° |
| 2026-05-06 21:16 | 51.25762 | -45.52746 | 40122 ft | 469 kts | 252° |
| 2026-05-06 21:16 | 51.23299 | -45.62387 | 40147 ft | 467 kts | 251° |
| 2026-05-06 21:17 | 51.20836 | -45.71987 | 40139 ft | 467 kts | 251° |
| 2026-05-06 21:17 | 51.18365 | -45.81575 | 40121 ft | 467 kts | 251° |
| 2026-05-06 21:18 | 51.15888 | -45.91144 | 40119 ft | 466 kts | 251° |
| 2026-05-06 21:18 | 51.13422 | -46.00634 | 40124 ft | 466 kts | 251° |
| 2026-05-06 21:19 | 51.10937 | -46.10156 | 40136 ft | 465 kts | 251° |
| 2026-05-06 21:19 | 51.08445 | -46.19666 | 40127 ft | 464 kts | 250° |
| 2026-05-06 21:20 | 51.05950 | -46.29146 | 40125 ft | 464 kts | 250° |
| 2026-05-06 21:20 | 51.03466 | -46.38545 | 40108 ft | 464 kts | 250° |
| 2026-05-06 21:21 | 51.00961 | -46.47988 | 40124 ft | 463 kts | 250° |
| 2026-05-06 21:21 | 50.98456 | -46.57388 | 40129 ft | 462 kts | 250° |
| 2026-05-06 21:22 | 50.95945 | -46.66774 | 40128 ft | 462 kts | 250° |
| 2026-05-06 21:22 | 50.93852 | -46.74569 | 40124 ft | 461 kts | 250° |
| 2026-05-06 21:23 | 50.91332 | -46.83922 | 40122 ft | 461 kts | 250° |
| 2026-05-06 21:23 | 50.88802 | -46.93270 | 40130 ft | 460 kts | 250° |
| 2026-05-06 21:24 | 50.86272 | -47.02582 | 40132 ft | 460 kts | 250° |
| 2026-05-06 21:24 | 50.83737 | -47.11874 | 40126 ft | 460 kts | 250° |
| 2026-05-06 21:25 | 50.81196 | -47.21152 | 40123 ft | 459 kts | 249° |
| 2026-05-06 21:25 | 50.78648 | -47.30416 | 40134 ft | 459 kts | 249° |
| 2026-05-06 21:26 | 50.76110 | -47.39614 | 40125 ft | 459 kts | 249° |
| 2026-05-06 21:26 | 50.73547 | -47.48860 | 40124 ft | 459 kts | 249° |
| 2026-05-06 21:27 | 50.70976 | -47.58099 | 40124 ft | 459 kts | 249° |
| 2026-05-06 21:27 | 50.68399 | -47.67326 | 40125 ft | 459 kts | 249° |
| 2026-05-06 21:28 | 50.65817 | -47.76534 | 40125 ft | 460 kts | 249° |
| 2026-05-06 21:28 | 50.63224 | -47.85742 | 40125 ft | 460 kts | 249° |
| 2026-05-06 21:29 | 50.60622 | -47.94949 | 40129 ft | 460 kts | 249° |
| 2026-05-06 21:29 | 50.58028 | -48.04091 | 40129 ft | 460 kts | 249° |
| 2026-05-06 21:30 | 50.55410 | -48.13282 | 40125 ft | 460 kts | 249° |
| 2026-05-06 21:30 | 50.52786 | -48.22461 | 40138 ft | 460 kts | 248° |
| 2026-05-06 21:31 | 50.50153 | -48.31634 | 40132 ft | 459 kts | 248° |
| 2026-05-06 21:31 | 50.47516 | -48.40784 | 40131 ft | 459 kts | 248° |
| 2026-05-06 21:32 | 50.44894 | -48.49848 | 40132 ft | 459 kts | 248° |
| 2026-05-06 21:32 | 50.40924 | -48.63510 | 40134 ft | 459 kts | 248° |
| 2026-05-06 21:33 | 50.38266 | -48.72611 | 40126 ft | 458 kts | 248° |
| 2026-05-06 21:33 | 50.35598 | -48.81713 | 40128 ft | 458 kts | 248° |
| 2026-05-06 21:34 | 50.32934 | -48.90768 | 40129 ft | 458 kts | 248° |
| 2026-05-06 21:34 | 50.30274 | -48.99773 | 40133 ft | 458 kts | 248° |
| 2026-05-06 21:35 | 50.27592 | -49.08824 | 40136 ft | 458 kts | 247° |
| 2026-05-06 21:35 | 50.24900 | -49.17868 | 40135 ft | 458 kts | 247° |
| 2026-05-06 21:36 | 50.22207 | -49.26886 | 40133 ft | 458 kts | 247° |
| 2026-05-06 21:36 | 50.19507 | -49.35893 | 40135 ft | 458 kts | 247° |
| 2026-05-06 21:37 | 50.16800 | -49.44889 | 40136 ft | 458 kts | 246° |
| 2026-05-06 21:37 | 50.14086 | -49.53876 | 40138 ft | 458 kts | 246° |
| 2026-05-06 21:38 | 50.11367 | -49.62854 | 40133 ft | 458 kts | 246° |
| 2026-05-06 21:38 | 50.08662 | -49.71770 | 40136 ft | 458 kts | 246° |
| 2026-05-06 21:39 | 50.05929 | -49.80746 | 40137 ft | 458 kts | 246° |
| 2026-05-06 21:39 | 50.03194 | -49.89699 | 40132 ft | 458 kts | 246° |
| 2026-05-06 21:40 | 50.00450 | -49.98648 | 40135 ft | 459 kts | 246° |
| 2026-05-06 21:40 | 49.97970 | -50.07777 | 40136 ft | 457 kts | 251° |
| 2026-05-06 21:41 | 49.95856 | -50.17049 | 40135 ft | 458 kts | 251° |
| 2026-05-06 21:41 | 49.93666 | -50.26339 | 40128 ft | 458 kts | 251° |
| 2026-05-06 21:42 | 49.91421 | -50.35628 | 40130 ft | 459 kts | 251° |
| 2026-05-06 21:42 | 49.89176 | -50.44848 | 40135 ft | 459 kts | 250° |
| 2026-05-06 21:43 | 49.86910 | -50.54118 | 40142 ft | 460 kts | 250° |
| 2026-05-06 21:43 | 49.84634 | -50.63392 | 40144 ft | 460 kts | 250° |
| 2026-05-06 21:44 | 49.82352 | -50.72655 | 40135 ft | 460 kts | 250° |
| 2026-05-06 21:44 | 49.80056 | -50.81934 | 40139 ft | 461 kts | 250° |
| 2026-05-06 21:45 | 49.77752 | -50.91206 | 40135 ft | 461 kts | 250° |
| 2026-05-06 21:45 | 49.75450 | -51.00431 | 40134 ft | 461 kts | 250° |
| 2026-05-06 21:46 | 49.73131 | -51.09690 | 40140 ft | 461 kts | 250° |
| 2026-05-06 21:46 | 49.70815 | -51.18894 | 40132 ft | 461 kts | 250° |
| 2026-05-06 21:47 | 49.68482 | -51.28130 | 40134 ft | 462 kts | 250° |
| 2026-05-06 21:47 | 49.66134 | -51.37387 | 40132 ft | 463 kts | 250° |
| 2026-05-06 21:48 | 49.63777 | -51.46641 | 40137 ft | 463 kts | 250° |
| 2026-05-06 21:48 | 49.61413 | -51.55888 | 40139 ft | 463 kts | 250° |
| 2026-05-06 21:49 | 49.59055 | -51.65071 | 40138 ft | 464 kts | 250° |
| 2026-05-06 21:49 | 49.56671 | -51.74317 | 40128 ft | 464 kts | 250° |
| 2026-05-06 21:50 | 49.54275 | -51.83572 | 40132 ft | 465 kts | 250° |
| 2026-05-06 21:50 | 49.51874 | -51.92809 | 40141 ft | 465 kts | 250° |
| 2026-05-06 21:51 | 49.49413 | -52.02020 | 40140 ft | 465 kts | 247° |
| 2026-05-06 21:51 | 49.46691 | -52.11069 | 40132 ft | 465 kts | 247° |
| 2026-05-06 21:52 | 49.44020 | -52.20084 | 40132 ft | 465 kts | 248° |
| 2026-05-06 21:52 | 49.41346 | -52.29142 | 40130 ft | 465 kts | 248° |
| 2026-05-06 21:53 | 49.38665 | -52.38193 | 40129 ft | 465 kts | 247° |
| 2026-05-06 21:53 | 49.35982 | -52.47219 | 40128 ft | 465 kts | 247° |
| 2026-05-06 21:54 | 49.33289 | -52.56243 | 40121 ft | 465 kts | 247° |
| 2026-05-06 21:54 | 49.30587 | -52.65262 | 40123 ft | 465 kts | 247° |
| 2026-05-06 21:55 | 49.27894 | -52.74222 | 40126 ft | 466 kts | 247° |
| 2026-05-06 21:55 | 49.25178 | -52.83222 | 40124 ft | 466 kts | 247° |
| 2026-05-06 21:56 | 49.22444 | -52.92241 | 40130 ft | 466 kts | 247° |
| 2026-05-06 21:56 | 49.19701 | -53.01243 | 40122 ft | 466 kts | 247° |
| 2026-05-06 21:57 | 49.16966 | -53.10181 | 40124 ft | 466 kts | 247° |
| 2026-05-06 21:57 | 49.14210 | -53.19152 | 40123 ft | 466 kts | 247° |
| 2026-05-06 21:58 | 49.11449 | -53.28109 | 40118 ft | 465 kts | 247° |
| 2026-05-06 21:58 | 49.08704 | -53.36981 | 40113 ft | 465 kts | 247° |
| 2026-05-06 21:59 | 49.05934 | -53.45904 | 40112 ft | 465 kts | 247° |
| 2026-05-06 21:59 | 49.03159 | -53.54807 | 40114 ft | 465 kts | 247° |
| 2026-05-06 22:00 | 49.00375 | -53.63710 | 40119 ft | 465 kts | 247° |
| 2026-05-06 22:00 | 48.97586 | -53.72598 | 40126 ft | 465 kts | 247° |
| 2026-05-06 22:01 | 48.94790 | -53.81476 | 40118 ft | 465 kts | 247° |
| 2026-05-06 22:01 | 48.92004 | -53.90290 | 40121 ft | 465 kts | 247° |
| 2026-05-06 22:02 | 48.89192 | -53.99151 | 40136 ft | 465 kts | 247° |
| 2026-05-06 22:02 | 48.86372 | -54.08011 | 40145 ft | 465 kts | 247° |
| 2026-05-06 22:03 | 48.83550 | -54.16847 | 40137 ft | 465 kts | 247° |
| 2026-05-06 22:03 | 48.80724 | -54.25662 | 40137 ft | 464 kts | 247° |
| 2026-05-06 22:04 | 48.77896 | -54.34452 | 40137 ft | 463 kts | 247° |
| 2026-05-06 22:04 | 48.75083 | -54.43167 | 40115 ft | 463 kts | 247° |
| 2026-05-06 22:05 | 48.72249 | -54.51913 | 40131 ft | 462 kts | 247° |
| 2026-05-06 22:05 | 48.69411 | -54.60644 | 40130 ft | 462 kts | 247° |
| 2026-05-06 22:06 | 48.66568 | -54.69361 | 40132 ft | 461 kts | 246° |
| 2026-05-06 22:06 | 48.63723 | -54.78054 | 40139 ft | 461 kts | 246° |
| 2026-05-06 22:07 | 48.60865 | -54.86756 | 40152 ft | 461 kts | 246° |
| 2026-05-06 22:07 | 48.58008 | -54.95427 | 40147 ft | 461 kts | 246° |
| 2026-05-06 22:08 | 48.55141 | -55.04098 | 40150 ft | 462 kts | 246° |
| 2026-05-06 22:08 | 48.52748 | -55.11313 | 40137 ft | 462 kts | 246° |
| 2026-05-06 22:09 | 48.49396 | -55.21382 | 40119 ft | 462 kts | 246° |
| 2026-05-06 22:09 | 48.46510 | -55.30023 | 40152 ft | 462 kts | 245° |
| 2026-05-06 22:10 | 48.44084 | -55.37262 | 40140 ft | 461 kts | 245° |
| 2026-05-06 22:10 | 48.41188 | -55.45876 | 40137 ft | 461 kts | 245° |
| 2026-05-06 22:11 | 48.38304 | -55.54427 | 40139 ft | 461 kts | 245° |
| 2026-05-06 22:11 | 48.35395 | -55.63025 | 40135 ft | 460 kts | 245° |
| 2026-05-06 22:12 | 48.32483 | -55.71602 | 40139 ft | 460 kts | 245° |
| 2026-05-06 22:12 | 48.29568 | -55.80159 | 40126 ft | 460 kts | 245° |
| 2026-05-06 22:13 | 48.26647 | -55.88707 | 40129 ft | 460 kts | 245° |
| 2026-05-06 22:13 | 48.23719 | -55.97247 | 40136 ft | 460 kts | 245° |
| 2026-05-06 22:14 | 48.20806 | -56.05712 | 40133 ft | 459 kts | 245° |
| 2026-05-06 22:14 | 48.17868 | -56.14222 | 40123 ft | 459 kts | 244° |
| 2026-05-06 22:15 | 48.14929 | -56.22709 | 40123 ft | 459 kts | 244° |
| 2026-05-06 22:15 | 48.11982 | -56.31192 | 40122 ft | 458 kts | 244° |
| 2026-05-06 22:16 | 48.09048 | -56.39610 | 40120 ft | 458 kts | 244° |
| 2026-05-06 22:16 | 48.06092 | -56.48062 | 40122 ft | 458 kts | 244° |
| 2026-05-06 22:17 | 48.03133 | -56.56496 | 40140 ft | 459 kts | 244° |
| 2026-05-06 22:17 | 48.00163 | -56.64937 | 40155 ft | 459 kts | 244° |
| 2026-05-06 22:18 | 47.97183 | -56.73375 | 40141 ft | 459 kts | 244° |
| 2026-05-06 22:18 | 47.94199 | -56.81796 | 40172 ft | 459 kts | 244° |
| 2026-05-06 22:19 | 47.91210 | -56.90206 | 40185 ft | 459 kts | 244° |
| 2026-05-06 22:19 | 47.88217 | -56.98602 | 40198 ft | 459 kts | 244° |
| 2026-05-06 22:20 | 47.85215 | -57.06994 | 40196 ft | 458 kts | 244° |
| 2026-05-06 22:20 | 47.82231 | -57.15310 | 40206 ft | 458 kts | 244° |
| 2026-05-06 22:21 | 47.79218 | -57.23681 | 40208 ft | 458 kts | 244° |
| 2026-05-06 22:21 | 47.76199 | -57.32044 | 40201 ft | 459 kts | 244° |
| 2026-05-06 22:22 | 47.73172 | -57.40399 | 40207 ft | 459 kts | 244° |
| 2026-05-06 22:22 | 47.70138 | -57.48747 | 40197 ft | 459 kts | 244° |
| 2026-05-06 22:23 | 47.67096 | -57.57094 | 40200 ft | 460 kts | 244° |
| 2026-05-06 22:23 | 47.64065 | -57.65382 | 40196 ft | 460 kts | 244° |
| 2026-05-06 22:24 | 47.61006 | -57.73721 | 40199 ft | 461 kts | 244° |
| 2026-05-06 22:24 | 47.57936 | -57.82062 | 40198 ft | 461 kts | 243° |
| 2026-05-06 22:25 | 47.54872 | -57.90364 | 40189 ft | 457 kts | 243° |
| 2026-05-06 22:25 | 47.51817 | -57.98613 | 40181 ft | 457 kts | 243° |
| 2026-05-06 22:26 | 47.48754 | -58.06859 | 40173 ft | 457 kts | 243° |
| 2026-05-06 22:26 | 47.45701 | -58.15053 | 40165 ft | 457 kts | 243° |
| 2026-05-06 22:27 | 47.42626 | -58.23282 | 40165 ft | 457 kts | 243° |
| 2026-05-06 22:27 | 47.39542 | -58.31508 | 40159 ft | 458 kts | 243° |
| 2026-05-06 22:28 | 47.36447 | -58.39736 | 40147 ft | 458 kts | 242° |
| 2026-05-06 22:28 | 47.33351 | -58.47945 | 40147 ft | 458 kts | 242° |
| 2026-05-06 22:29 | 47.30262 | -58.56107 | 40143 ft | 457 kts | 242° |
| 2026-05-06 22:29 | 47.27159 | -58.64283 | 40140 ft | 457 kts | 242° |
| 2026-05-06 22:30 | 47.24052 | -58.72445 | 40133 ft | 456 kts | 242° |
| 2026-05-06 22:30 | 47.20963 | -58.80532 | 40136 ft | 455 kts | 243° |
| 2026-05-06 22:31 | 47.17857 | -58.88645 | 40111 ft | 454 kts | 243° |
| 2026-05-06 22:31 | 47.14754 | -58.96723 | 40110 ft | 453 kts | 243° |
| 2026-05-06 22:32 | 47.11650 | -59.04780 | 40104 ft | 453 kts | 243° |
| 2026-05-06 22:32 | 47.08542 | -59.12823 | 40094 ft | 452 kts | 242° |
| 2026-05-06 22:33 | 47.05431 | -59.20849 | 40091 ft | 452 kts | 242° |
| 2026-05-06 22:33 | 47.02319 | -59.28851 | 40111 ft | 451 kts | 243° |
| 2026-05-06 22:34 | 46.99223 | -59.36792 | 40106 ft | 450 kts | 243° |
| 2026-05-06 22:34 | 46.96114 | -59.44743 | 40100 ft | 449 kts | 243° |
| 2026-05-06 22:35 | 46.93002 | -59.52678 | 40079 ft | 449 kts | 243° |
| 2026-05-06 22:35 | 46.89885 | -59.60604 | 40080 ft | 448 kts | 243° |
| 2026-05-06 22:36 | 46.86790 | -59.68451 | 40075 ft | 448 kts | 242° |
| 2026-05-06 22:36 | 46.83669 | -59.76338 | 40073 ft | 448 kts | 242° |
| 2026-05-06 22:37 | 46.80547 | -59.84208 | 40060 ft | 448 kts | 242° |
| 2026-05-06 22:37 | 46.77432 | -59.92038 | 40055 ft | 448 kts | 242° |
| 2026-05-06 22:38 | 46.74295 | -59.99897 | 40075 ft | 447 kts | 242° |
| 2026-05-06 22:38 | 46.71156 | -60.07741 | 40068 ft | 447 kts | 242° |
| 2026-05-06 22:39 | 46.68014 | -60.15570 | 40063 ft | 447 kts | 242° |
| 2026-05-06 22:39 | 46.64873 | -60.23372 | 40056 ft | 446 kts | 242° |
| 2026-05-06 22:40 | 46.61732 | -60.31154 | 40053 ft | 445 kts | 242° |
| 2026-05-06 22:40 | 46.58608 | -60.38873 | 40052 ft | 445 kts | 242° |
| 2026-05-06 22:41 | 46.53881 | -60.50512 | 40066 ft | 445 kts | 242° |
| 2026-05-06 22:42 | 46.50723 | -60.58258 | 40070 ft | 444 kts | 242° |
| 2026-05-06 22:42 | 46.47570 | -60.65970 | 40065 ft | 443 kts | 242° |
| 2026-05-06 22:43 | 46.44443 | -60.73600 | 40071 ft | 442 kts | 242° |
| 2026-05-06 22:43 | 46.41294 | -60.81260 | 40068 ft | 442 kts | 242° |
| 2026-05-06 22:44 | 46.38143 | -60.88903 | 40063 ft | 442 kts | 242° |
| 2026-05-06 22:44 | 46.34986 | -60.96540 | 40057 ft | 441 kts | 242° |
| 2026-05-06 22:45 | 46.31841 | -61.04128 | 40062 ft | 442 kts | 242° |
| 2026-05-06 22:45 | 46.28668 | -61.11763 | 40064 ft | 442 kts | 242° |
| 2026-05-06 22:46 | 46.25498 | -61.19368 | 40055 ft | 442 kts | 242° |
| 2026-05-06 22:46 | 46.22332 | -61.26944 | 40054 ft | 443 kts | 241° |
| 2026-05-06 22:47 | 46.19142 | -61.34554 | 40094 ft | 442 kts | 241° |
| 2026-05-06 22:47 | 46.15961 | -61.42126 | 40066 ft | 438 kts | 240° |
| 2026-05-06 22:48 | 46.12796 | -61.49635 | 40067 ft | 438 kts | 240° |
| 2026-05-06 22:48 | 46.09641 | -61.57103 | 40059 ft | 438 kts | 240° |
| 2026-05-06 22:49 | 46.06463 | -61.64606 | 40059 ft | 438 kts | 240° |
| 2026-05-06 22:49 | 46.03283 | -61.72092 | 40061 ft | 438 kts | 240° |
| 2026-05-06 22:50 | 46.00102 | -61.79560 | 40066 ft | 438 kts | 240° |
| 2026-05-06 22:50 | 45.96914 | -61.87025 | 40053 ft | 438 kts | 240° |
| 2026-05-06 22:51 | 45.93723 | -61.94477 | 40053 ft | 437 kts | 240° |
| 2026-05-06 22:51 | 45.90546 | -62.01877 | 40051 ft | 438 kts | 240° |
| 2026-05-06 22:52 | 45.87347 | -62.09308 | 40045 ft | 437 kts | 240° |
| 2026-05-06 22:52 | 45.84141 | -62.16734 | 40041 ft | 437 kts | 240° |
| 2026-05-06 22:53 | 45.80932 | -62.24153 | 40028 ft | 437 kts | 239° |
| 2026-05-06 22:53 | 45.77724 | -62.31543 | 40036 ft | 436 kts | 239° |
| 2026-05-06 22:54 | 45.74536 | -62.38870 | 40032 ft | 435 kts | 239° |
| 2026-05-06 22:54 | 45.71328 | -62.46225 | 40040 ft | 435 kts | 239° |
| 2026-05-06 22:55 | 45.68119 | -62.53562 | 40026 ft | 435 kts | 239° |
| 2026-05-06 22:55 | 45.64904 | -62.60892 | 40013 ft | 435 kts | 239° |
| 2026-05-06 22:56 | 45.62221 | -62.66998 | 40014 ft | 437 kts | 239° |
| 2026-05-06 22:56 | 45.58449 | -62.75558 | 40037 ft | 438 kts | 239° |
| 2026-05-06 22:57 | 45.55722 | -62.81729 | 40048 ft | 439 kts | 239° |
| 2026-05-06 22:57 | 45.52457 | -62.89100 | 40036 ft | 440 kts | 239° |
| 2026-05-06 22:58 | 45.49202 | -62.96429 | 40054 ft | 440 kts | 239° |
| 2026-05-06 22:58 | 45.45920 | -63.03805 | 40068 ft | 441 kts | 238° |
| 2026-05-06 22:59 | 45.42631 | -63.11170 | 40067 ft | 441 kts | 238° |
| 2026-05-06 22:59 | 45.39332 | -63.18540 | 40047 ft | 441 kts | 239° |
| 2026-05-06 23:00 | 45.36036 | -63.25881 | 40064 ft | 439 kts | 239° |
| 2026-05-06 23:00 | 45.32747 | -63.33196 | 40067 ft | 438 kts | 239° |
| 2026-05-06 23:01 | 45.29481 | -63.40436 | 40061 ft | 437 kts | 239° |
| 2026-05-06 23:01 | 45.26196 | -63.47702 | 40037 ft | 437 kts | 239° |
| 2026-05-06 23:02 | 45.22917 | -63.54935 | 40055 ft | 432 kts | 239° |
| 2026-05-06 23:02 | 45.19662 | -63.62097 | 40055 ft | 432 kts | 239° |
| 2026-05-06 23:03 | 45.16417 | -63.69220 | 40051 ft | 432 kts | 239° |
| 2026-05-06 23:03 | 45.13149 | -63.76373 | 40058 ft | 432 kts | 239° |
| 2026-05-06 23:04 | 45.09900 | -63.83470 | 40044 ft | 424 kts | 238° |
| 2026-05-06 23:04 | 45.06673 | -63.90499 | 40046 ft | 426 kts | 238° |
| 2026-05-06 23:05 | 45.03460 | -63.97482 | 40048 ft | 426 kts | 238° |
| 2026-05-06 23:05 | 45.00219 | -64.04507 | 40048 ft | 426 kts | 238° |
| 2026-05-06 23:06 | 44.96971 | -64.11530 | 40038 ft | 426 kts | 238° |
| 2026-05-06 23:06 | 44.93712 | -64.18560 | 40038 ft | 428 kts | 238° |
| 2026-05-06 23:07 | 44.90442 | -64.25596 | 40050 ft | 429 kts | 238° |
| 2026-05-06 23:07 | 44.87159 | -64.32644 | 40051 ft | 430 kts | 238° |
| 2026-05-06 23:08 | 44.83892 | -64.39637 | 40030 ft | 430 kts | 238° |
| 2026-05-06 23:08 | 44.80601 | -64.46668 | 40029 ft | 430 kts | 238° |
| 2026-05-06 23:09 | 44.77303 | -64.53695 | 40032 ft | 430 kts | 238° |
| 2026-05-06 23:09 | 44.74000 | -64.60717 | 40026 ft | 430 kts | 237° |
| 2026-05-06 23:10 | 44.70699 | -64.67715 | 40031 ft | 429 kts | 237° |
| 2026-05-06 23:10 | 44.67419 | -64.74652 | 40020 ft | 428 kts | 237° |
| 2026-05-06 23:11 | 44.64113 | -64.81629 | 40023 ft | 428 kts | 237° |
| 2026-05-06 23:11 | 44.60807 | -64.88588 | 40029 ft | 428 kts | 237° |
| 2026-05-06 23:12 | 44.57493 | -64.95546 | 40032 ft | 429 kts | 237° |
| 2026-05-06 23:12 | 44.54174 | -65.02499 | 40014 ft | 429 kts | 237° |
| 2026-05-06 23:13 | 44.50844 | -65.09459 | 40022 ft | 431 kts | 237° |
| 2026-05-06 23:13 | 44.47513 | -65.16404 | 40039 ft | 431 kts | 237° |
| 2026-05-06 23:14 | 44.44156 | -65.23384 | 40046 ft | 432 kts | 237° |
| 2026-05-06 23:14 | 44.40795 | -65.30358 | 40053 ft | 432 kts | 237° |
| 2026-05-06 23:15 | 44.37428 | -65.37326 | 40048 ft | 432 kts | 237° |
| 2026-05-06 23:15 | 44.34055 | -65.44291 | 40044 ft | 432 kts | 237° |
| 2026-05-06 23:16 | 44.30680 | -65.51242 | 40028 ft | 432 kts | 237° |
| 2026-05-06 23:16 | 44.27299 | -65.58189 | 40025 ft | 432 kts | 237° |
| 2026-05-06 23:17 | 44.23919 | -65.65119 | 40019 ft | 432 kts | 237° |
| 2026-05-06 23:17 | 44.20533 | -65.72044 | 40014 ft | 432 kts | 237° |
| 2026-05-06 23:18 | 44.17143 | -65.78961 | 40016 ft | 432 kts | 237° |
| 2026-05-06 23:18 | 44.13749 | -65.85869 | 40019 ft | 432 kts | 237° |
| 2026-05-06 23:19 | 44.10342 | -65.92787 | 40021 ft | 432 kts | 237° |
| 2026-05-06 23:19 | 44.06960 | -65.99637 | 40021 ft | 432 kts | 237° |
| 2026-05-06 23:20 | 44.03549 | -66.06530 | 40013 ft | 433 kts | 237° |
| 2026-05-06 23:20 | 44.00132 | -66.13421 | 40000 ft | 432 kts | 237° |
| 2026-05-06 23:21 | 43.96714 | -66.20294 | 40001 ft | 432 kts | 237° |
| 2026-05-06 23:21 | 43.93319 | -66.27108 | 39999 ft | 431 kts | 237° |
| 2026-05-06 23:22 | 43.89897 | -66.33959 | 39998 ft | 431 kts | 237° |
| 2026-05-06 23:22 | 43.86474 | -66.40800 | 39977 ft | 432 kts | 237° |
| 2026-05-06 23:23 | 43.83049 | -66.47634 | 39991 ft | 431 kts | 237° |
| 2026-05-06 23:23 | 43.79619 | -66.54466 | 39986 ft | 432 kts | 237° |
| 2026-05-06 23:24 | 43.76184 | -66.61292 | 39986 ft | 432 kts | 237° |
| 2026-05-06 23:24 | 43.72761 | -66.68077 | 39953 ft | 432 kts | 237° |
| 2026-05-06 23:25 | 43.69314 | -66.74892 | 39976 ft | 433 kts | 237° |
| 2026-05-06 23:25 | 43.65858 | -66.81712 | 39978 ft | 433 kts | 237° |
| 2026-05-06 23:26 | 43.62404 | -66.88512 | 39956 ft | 432 kts | 237° |
| 2026-05-06 23:26 | 43.58942 | -66.95311 | 39954 ft | 432 kts | 237° |
| 2026-05-06 23:27 | 43.55690 | -67.02261 | 39948 ft | 428 kts | 248° |
| 2026-05-06 23:27 | 43.53593 | -67.09871 | 39944 ft | 427 kts | 251° |
| 2026-05-06 23:28 | 43.51556 | -67.17588 | 39946 ft | 428 kts | 250° |
| 2026-05-06 23:28 | 43.49433 | -67.25256 | 39940 ft | 428 kts | 250° |
| 2026-05-06 23:29 | 43.47277 | -67.32916 | 39944 ft | 429 kts | 250° |
| 2026-05-06 23:29 | 43.45113 | -67.40567 | 39946 ft | 428 kts | 250° |
| 2026-05-06 23:30 | 43.42966 | -67.48144 | 39936 ft | 428 kts | 250° |
| 2026-05-06 23:30 | 43.40798 | -67.55770 | 39939 ft | 428 kts | 250° |
| 2026-05-06 23:31 | 43.38629 | -67.63378 | 39931 ft | 427 kts | 250° |
| 2026-05-06 23:31 | 43.36453 | -67.70988 | 39931 ft | 427 kts | 250° |
| 2026-05-06 23:32 | 43.34275 | -67.78578 | 39942 ft | 426 kts | 250° |
| 2026-05-06 23:32 | 43.32101 | -67.86134 | 39935 ft | 425 kts | 250° |
| 2026-05-06 23:33 | 43.29938 | -67.93631 | 39927 ft | 424 kts | 250° |
| 2026-05-06 23:33 | 43.27762 | -68.01151 | 39924 ft | 423 kts | 250° |
| 2026-05-06 23:34 | 43.25614 | -68.08544 | 39918 ft | 412 kts | 250° |
| 2026-05-06 23:34 | 43.23495 | -68.15821 | 39916 ft | 410 kts | 250° |
| 2026-05-06 23:35 | 43.21370 | -68.23103 | 39913 ft | 411 kts | 250° |
| 2026-05-06 23:35 | 43.19239 | -68.30381 | 39905 ft | 411 kts | 250° |
| 2026-05-06 23:36 | 43.17116 | -68.37612 | 39610 ft | 403 kts | 250° |
| 2026-05-06 23:36 | 43.16071 | -68.41161 | 39376 ft | 400 kts | 250° |
| 2026-05-06 23:36 | 43.15029 | -68.44696 | 39129 ft | 400 kts | 250° |
| 2026-05-06 23:36 | 43.13987 | -68.48228 | 38909 ft | 399 kts | 250° |
| 2026-05-06 23:37 | 43.12948 | -68.51748 | 38659 ft | 398 kts | 250° |
| 2026-05-06 23:37 | 43.11913 | -68.55240 | 38393 ft | 393 kts | 250° |
| 2026-05-06 23:37 | 43.10899 | -68.58661 | 38121 ft | 393 kts | 250° |
| 2026-05-06 23:37 | 43.09856 | -68.62181 | 37841 ft | 395 kts | 250° |
| 2026-05-06 23:38 | 43.08834 | -68.65627 | 37562 ft | 396 kts | 250° |
| 2026-05-06 23:38 | 43.07796 | -68.69119 | 37293 ft | 397 kts | 250° |
| 2026-05-06 23:38 | 43.06754 | -68.72616 | 37034 ft | 397 kts | 250° |
| 2026-05-06 23:38 | 43.05710 | -68.76118 | 36542 ft | 397 kts | 249° |
| 2026-05-06 23:39 | 43.04661 | -68.79632 | 35582 ft | 402 kts | 249° |
| 2026-05-06 23:39 | 43.03595 | -68.83200 | 34606 ft | 407 kts | 248° |
| 2026-05-06 23:39 | 43.02524 | -68.86773 | 33885 ft | 405 kts | 248° |
| 2026-05-06 23:39 | 43.01453 | -68.90342 | 32911 ft | 406 kts | 248° |
| 2026-05-06 23:40 | 43.00385 | -68.93894 | 32183 ft | 401 kts | 248° |
| 2026-05-06 23:40 | 42.99347 | -68.97340 | 31790 ft | 392 kts | 248° |
| 2026-05-06 23:40 | 42.98315 | -69.00763 | 31199 ft | 388 kts | 248° |
| 2026-05-06 23:40 | 42.97293 | -69.04153 | 30636 ft | 384 kts | 248° |
| 2026-05-06 23:41 | 42.96278 | -69.07516 | 30071 ft | 380 kts | 248° |
| 2026-05-06 23:41 | 42.95275 | -69.10833 | 29447 ft | 376 kts | 248° |
| 2026-05-06 23:41 | 42.94285 | -69.14107 | 28887 ft | 370 kts | 247° |
| 2026-05-06 23:41 | 42.93309 | -69.17326 | 28352 ft | 365 kts | 247° |
| 2026-05-06 23:42 | 42.92345 | -69.20504 | 27848 ft | 360 kts | 247° |
| 2026-05-06 23:42 | 42.91390 | -69.23642 | 27279 ft | 356 kts | 247° |
| 2026-05-06 23:42 | 42.90447 | -69.26745 | 26747 ft | 351 kts | 247° |
| 2026-05-06 23:42 | 42.89524 | -69.29776 | 26227 ft | 348 kts | 246° |
| 2026-05-06 23:43 | 42.88603 | -69.32799 | 25715 ft | 344 kts | 246° |
| 2026-05-06 23:43 | 42.87687 | -69.35798 | 25188 ft | 341 kts | 246° |
| 2026-05-06 23:43 | 42.86775 | -69.38783 | 24688 ft | 339 kts | 246° |
| 2026-05-06 23:43 | 42.86176 | -69.40744 | 24343 ft | 338 kts | 245° |
| 2026-05-06 23:44 | 42.85273 | -69.43692 | 23841 ft | 337 kts | 245° |
| 2026-05-06 23:44 | 42.84370 | -69.46637 | 23329 ft | 336 kts | 245° |
| 2026-05-06 23:44 | 42.83472 | -69.49561 | 22790 ft | 333 kts | 245° |
| 2026-05-06 23:44 | 42.82582 | -69.52454 | 22303 ft | 330 kts | 245° |
| 2026-05-06 23:45 | 42.81699 | -69.55322 | 21799 ft | 328 kts | 245° |
| 2026-05-06 23:45 | 42.80822 | -69.58170 | 21292 ft | 325 kts | 245° |
| 2026-05-06 23:45 | 42.79952 | -69.60992 | 20825 ft | 322 kts | 245° |
| 2026-05-06 23:45 | 42.79087 | -69.63792 | 20333 ft | 319 kts | 245° |
| 2026-05-06 23:46 | 42.78229 | -69.66571 | 19838 ft | 317 kts | 245° |
| 2026-05-06 23:46 | 42.77378 | -69.69320 | 19346 ft | 314 kts | 245° |
| 2026-05-06 23:46 | 42.76536 | -69.72041 | 18884 ft | 311 kts | 245° |
| 2026-05-06 23:46 | 42.75700 | -69.74738 | 18427 ft | 308 kts | 245° |
| 2026-05-06 23:47 | 42.74870 | -69.77416 | 17926 ft | 306 kts | 245° |
| 2026-05-06 23:47 | 42.74047 | -69.80065 | 17452 ft | 302 kts | 245° |
| 2026-05-06 23:47 | 42.73232 | -69.82688 | 17000 ft | 299 kts | 245° |
| 2026-05-06 23:47 | 42.72404 | -69.85343 | 16717 ft | 314 kts | 245° |
| 2026-05-06 23:48 | 42.71523 | -69.88165 | 16249 ft | 333 kts | 246° |
| 2026-05-06 23:48 | 42.70609 | -69.91092 | 15736 ft | 338 kts | 246° |
| 2026-05-06 23:48 | 42.69693 | -69.94029 | 15225 ft | 336 kts | 246° |
| 2026-05-06 23:48 | 42.68791 | -69.96921 | 14734 ft | 328 kts | 246° |
| 2026-05-06 23:49 | 42.67910 | -69.99745 | 14262 ft | 321 kts | 246° |
| 2026-05-06 23:49 | 42.67046 | -70.02509 | 13783 ft | 314 kts | 246° |
| 2026-05-06 23:49 | 42.66200 | -70.05213 | 13296 ft | 308 kts | 246° |
| 2026-05-06 23:49 | 42.65372 | -70.07857 | 12839 ft | 301 kts | 246° |
| 2026-05-06 23:50 | 42.64508 | -70.10409 | 12416 ft | 293 kts | 243° |
| 2026-05-06 23:50 | 42.62846 | -70.15228 | 12003 ft | 270 kts | 244° |
| 2026-05-06 23:50 | 42.62080 | -70.17485 | 11897 ft | 258 kts | 244° |
| 2026-05-06 23:51 | 42.61331 | -70.19680 | 11646 ft | 254 kts | 244° |
| 2026-05-06 23:51 | 42.60620 | -70.21873 | 11410 ft | 254 kts | 249° |
| 2026-05-06 23:51 | 42.60156 | -70.24184 | 11161 ft | 254 kts | 257° |
| 2026-05-06 23:51 | 42.59972 | -70.26573 | 10914 ft | 256 kts | 264° |
| 2026-05-06 23:52 | 42.59888 | -70.28982 | 10680 ft | 255 kts | 263° |
| 2026-05-06 23:52 | 42.59783 | -70.31385 | 10440 ft | 254 kts | 263° |
| 2026-05-06 23:52 | 42.59671 | -70.33773 | 10200 ft | 254 kts | 263° |
| 2026-05-06 23:52 | 42.59557 | -70.36166 | 9957 ft | 253 kts | 263° |
| 2026-05-06 23:53 | 42.59446 | -70.38514 | 9825 ft | 252 kts | 263° |
| 2026-05-06 23:53 | 42.59334 | -70.40897 | 9714 ft | 253 kts | 263° |
| 2026-05-06 23:53 | 42.59233 | -70.43285 | 9589 ft | 254 kts | 265° |
| 2026-05-06 23:53 | 42.59200 | -70.45685 | 9428 ft | 253 kts | 265° |
| 2026-05-06 23:54 | 42.59168 | -70.48067 | 9154 ft | 251 kts | 265° |
| 2026-05-06 23:54 | 42.59135 | -70.50434 | 8694 ft | 251 kts | 265° |
| 2026-05-06 23:54 | 42.59100 | -70.52797 | 8276 ft | 250 kts | 265° |
| 2026-05-06 23:54 | 42.59060 | -70.55159 | 7835 ft | 251 kts | 266° |
| 2026-05-06 23:55 | 42.58998 | -70.57529 | 7394 ft | 251 kts | 265° |
| 2026-05-06 23:55 | 42.58928 | -70.59883 | 7010 ft | 250 kts | 265° |
| 2026-05-06 23:55 | 42.58856 | -70.62221 | 6608 ft | 250 kts | 265° |
| 2026-05-06 23:55 | 42.58780 | -70.64567 | 6243 ft | 248 kts | 266° |
| 2026-05-06 23:56 | 42.58702 | -70.66908 | 5859 ft | 247 kts | 265° |
| 2026-05-06 23:56 | 42.58625 | -70.69210 | 5413 ft | 243 kts | 265° |
| 2026-05-06 23:56 | 42.58554 | -70.71474 | 5135 ft | 233 kts | 265° |
| 2026-05-06 23:56 | 42.58298 | -70.73616 | 4631 ft | 232 kts | 252° |
| 2026-05-06 23:57 | 42.57782 | -70.75715 | 4137 ft | 231 kts | 251° |
| 2026-05-06 23:57 | 42.57276 | -70.77693 | 3975 ft | 213 kts | 251° |
| 2026-05-06 23:57 | 42.56787 | -70.79506 | 3830 ft | 198 kts | 250° |
| 2026-05-06 23:57 | 42.56315 | -70.81190 | 3543 ft | 186 kts | 249° |
| 2026-05-06 23:58 | 42.55866 | -70.82755 | 3126 ft | 169 kts | 249° |
| 2026-05-06 23:58 | 42.55436 | -70.84240 | 2998 ft | 170 kts | 249° |
| 2026-05-06 23:58 | 42.55000 | -70.85740 | 2995 ft | 172 kts | 250° |
| 2026-05-06 23:58 | 42.54558 | -70.87255 | 3007 ft | 172 kts | 250° |
| 2026-05-06 23:59 | 42.54129 | -70.88733 | 3002 ft | 164 kts | 249° |
| 2026-05-06 23:59 | 42.53715 | -70.90159 | 2998 ft | 161 kts | 249° |
| 2026-05-06 23:59 | 42.53271 | -70.91550 | 2997 ft | 160 kts | 241° |
| 2026-05-06 23:59 | 42.52483 | -70.92630 | 2997 ft | 166 kts | 218° |
| 2026-05-07 00:00 | 42.51430 | -70.93308 | 2961 ft | 169 kts | 207° |
| 2026-05-07 00:00 | 42.50321 | -70.93806 | 2771 ft | 169 kts | 206° |
| 2026-05-07 00:00 | 42.49229 | -70.94348 | 2534 ft | 166 kts | 207° |
| 2026-05-07 00:00 | 42.48191 | -70.94834 | 2309 ft | 146 kts | 206° |
| 2026-05-07 00:01 | 42.47303 | -70.95270 | 2123 ft | 128 kts | 206° |
| 2026-05-07 00:01 | 42.46471 | -70.95675 | 1944 ft | 124 kts | 206° |
| 2026-05-07 00:01 | 42.45668 | -70.96062 | 1789 ft | 123 kts | 205° |
| 2026-05-07 00:01 | 42.44859 | -70.96457 | 1632 ft | 123 kts | 202° |
| 2026-05-07 00:02 | 42.44063 | -70.96837 | 1466 ft | 120 kts | 201° |
| 2026-05-07 00:02 | 42.43279 | -70.97231 | 1303 ft | 121 kts | 202° |
| 2026-05-07 00:02 | 42.42471 | -70.97603 | 1102 ft | 123 kts | 202° |
| 2026-05-07 00:02 | 42.41641 | -70.97941 | 925 ft | 124 kts | 208° |
| 2026-05-07 00:03 | 42.40823 | -70.98355 | 762 ft | 124 kts | 208° |
| 2026-05-07 00:03 | 42.40003 | -70.98751 | 549 ft | 125 kts | 213° |
| 2026-05-07 00:03 | 42.39200 | -70.99175 | 409 ft | 122 kts | 204° |
| 2026-05-07 00:03 | 42.38428 | -70.99585 | 254 ft | 117 kts | 200° |
| 2026-05-07 00:04 | 42.37654 | -70.99955 | 101 ft | 119 kts | 201° |
| 2026-05-07 00:04 | 42.36919 | -71.00308 | 31 ft | 94 kts | 200° |
| 2026-05-07 00:04 | 42.36416 | -71.00553 | 31 ft | 62 kts | 198° |
| 2026-05-07 00:04 | 42.36077 | -71.00711 | 32 ft | 46 kts | 200° |
| 2026-05-07 00:05 | 42.35798 | -71.00846 | 30 ft | 37 kts | 200° |
| 2026-05-07 00:05 | 42.35572 | -71.00957 | 30 ft | 36 kts | 200° |
| 2026-05-07 00:05 | 42.35333 | -71.01074 | 30 ft | 30 kts | 200° |
| 2026-05-07 00:05 | 42.35203 | -71.01165 | 30 ft | 6 kts | 259° |
| 2026-05-07 00:06 | 42.35231 | -71.01268 | 30 ft | 17 kts | 308° |
| 2026-05-07 00:06 | 42.35303 | -71.01400 | 30 ft | 17 kts | 303° |
| 2026-05-07 00:06 | 42.35332 | -71.01457 | 30 ft | 0 kts | 304° |
| 2026-05-07 00:07 | 42.35332 | -71.01458 | 30 ft | 0 kts | 304° |
| 2026-05-07 00:09 | 42.35347 | -71.01486 | 30 ft | 7 kts | 305° |
| 2026-05-07 00:10 | 42.35393 | -71.01575 | 30 ft | 18 kts | 304° |
| 2026-05-07 00:10 | 42.35475 | -71.01710 | 30 ft | 17 kts | 330° |
| 2026-05-07 00:10 | 42.35597 | -71.01693 | 30 ft | 21 kts | 20° |
| 2026-05-07 00:10 | 42.35753 | -71.01617 | 30 ft | 27 kts | 20° |
| 2026-05-07 00:11 | 42.35943 | -71.01523 | 30 ft | 31 kts | 19° |
| 2026-05-07 00:11 | 42.36149 | -71.01425 | 30 ft | 31 kts | 19° |
| 2026-05-07 00:11 | 42.36335 | -71.01336 | 30 ft | 28 kts | 20° |
| 2026-05-07 00:11 | 42.36493 | -71.01257 | 31 ft | 15 kts | 20° |
| 2026-05-07 00:12 | 42.36581 | -71.01215 | 31 ft | 13 kts | 20° |
| 2026-05-07 00:12 | 42.36603 | -71.01204 | 31 ft | 0 kts | 19° |
| 2026-05-07 00:13 | 42.36607 | -71.01202 | 31 ft | 2 kts | 20° |
| 2026-05-07 00:13 | 42.36614 | -71.01198 | 31 ft | 3 kts | 20° |
| 2026-05-07 00:13 | 42.36660 | -71.01176 | 31 ft | 10 kts | 20° |
| 2026-05-07 00:14 | 42.36744 | -71.01142 | 31 ft | 15 kts | 2° |
| 2026-05-07 00:14 | 42.36842 | -71.01211 | 31 ft | 18 kts | 312° |
| 2026-05-07 00:14 | 42.36929 | -71.01335 | 31 ft | 19 kts | 314° |
| 2026-05-07 00:14 | 42.37028 | -71.01470 | 31 ft | 21 kts | 314° |
| 2026-05-07 00:15 | 42.37135 | -71.01615 | 30 ft | 22 kts | 315° |
| 2026-05-07 00:15 | 42.37250 | -71.01767 | 30 ft | 23 kts | 316° |
| 2026-05-07 00:15 | 42.37278 | -71.01893 | 30 ft | 13 kts | 231° |
| 2026-05-07 00:15 | 42.37231 | -71.01986 | 30 ft | 11 kts | 263° |
| 2026-05-07 00:16 | 42.37237 | -71.02089 | 30 ft | 12 kts | 270° |
| 2026-05-07 00:16 | 42.37205 | -71.02178 | 31 ft | 11 kts | 216° |
| 2026-05-07 00:16 | 42.37147 | -71.02187 | 31 ft | 9 kts | 161° |
| 2026-05-07 00:16 | 42.37099 | -71.02156 | 30 ft | 4 kts | 148° |
| 2026-05-07 00:17 | 42.37092 | -71.02149 | 31 ft | 0 kts | 148° |